Observation data for Hobbs on 05/26/2019      Previous  Date  Next       Current Mesonet Observations  Soil Data  Daily Summary Page  Observations in Plain Language
KHO1 260500Z 16010KT 20/14 A30 RMK A01 T01960141  RH  071%=      5-min Rain = 0
KHO1 260501Z 16009KT 20/14 A30 RMK A01 T01950141  RH  071%=      5-min Rain = 0
KHO1 260502Z 16009KT 20/14 A30 RMK A01 T01950142  RH  071%=      5-min Rain = 0
KHO1 260503Z 16009KT 20/14 A30 RMK A01 T01950142  RH  071%=      5-min Rain = 0
KHO1 260504Z 17008KT 20/14 A30 RMK A01 T01950142  RH  071%=      5-min Rain = 0
KHO1 260505Z 16009KT 20/14 A30 RMK A01 T01950142  RH  071%=      5-min Rain = 0
KHO1 260506Z 16009KT 20/14 A30 RMK A01 T01950142  RH  072%=      5-min Rain = 0
KHO1 260507Z 16009KT 20/14 A30 RMK A01 T01950143  RH  072%=      5-min Rain = 0
KHO1 260508Z 16009KT 20/14 A30 RMK A01 T01950143  RH  072%=      5-min Rain = 0
KHO1 260509Z 17010KT 20/14 A30 RMK A01 T01950143  RH  072%=      5-min Rain = 0
KHO1 260510Z 16009KT 20/14 A30 RMK A01 T01950143  RH  072%=      5-min Rain = 0
KHO1 260511Z 17010KT 20/14 A30 RMK A01 T01950143  RH  072%=      5-min Rain = 0
KHO1 260512Z 17009KT 20/14 A30 RMK A01 T01950143  RH  072%=      5-min Rain = 0
KHO1 260513Z 17009KT 20/14 A30 RMK A01 T01950143  RH  072%=      5-min Rain = 0
KHO1 260514Z 17008KT 19/14 A30 RMK A01 T01940144  RH  072%=      5-min Rain = 0
KHO1 260515Z 17009KT 19/14 A30 RMK A01 T01940144  RH  073%=      5-min Rain = 0
KHO1 260516Z 17009KT 19/14 A30 RMK A01 T01940144  RH  073%=      5-min Rain = 0
KHO1 260517Z 17008KT 19/14 A30 RMK A01 T01940144  RH  073%=      5-min Rain = 0
KHO1 260518Z 17008KT 19/14 A30 RMK A01 T01940144  RH  073%=      5-min Rain = 0
KHO1 260519Z 17008KT 19/14 A30 RMK A01 T01940144  RH  073%=      5-min Rain = 0
KHO1 260520Z 17009KT 19/15 A30 RMK A01 T01940145  RH  073%=      5-min Rain = 0
KHO1 260521Z 17010KT 19/15 A30 RMK A01 T01940145  RH  073%=      5-min Rain = 0
KHO1 260522Z 17009KT 19/15 A30 RMK A01 T01940145  RH  073%=      5-min Rain = 0
KHO1 260523Z 17009KT 19/15 A30 RMK A01 T01940146  RH  073%=      5-min Rain = 0
KHO1 260524Z 17009KT 19/15 A30 RMK A01 T01940146  RH  074%=      5-min Rain = 0
KHO1 260525Z 17009KT 19/15 A30 RMK A01 T01940146  RH  074%=      5-min Rain = 0
KHO1 260526Z 17008KT 19/15 A30 RMK A01 T01940146  RH  074%=      5-min Rain = 0
KHO1 260527Z 17009KT 19/15 A30 RMK A01 T01940146  RH  074%=      5-min Rain = 0
KHO1 260528Z 17009KT 19/15 A30 RMK A01 T01940147  RH  074%=      5-min Rain = 0
KHO1 260529Z 17009KT 20/15 A30 RMK A01 T01950147  RH  074%=      5-min Rain = 0
KHO1 260530Z 17009KT 19/15 A30 RMK A01 T01940147  RH  074%=      5-min Rain = 0
KHO1 260531Z 17009KT 19/15 A30 RMK A01 T01940147  RH  074%=      5-min Rain = 0
KHO1 260532Z 17009KT 19/15 A30 RMK A01 T01940148  RH  074%=      5-min Rain = 0
KHO1 260533Z 17009KT 19/15 A30 RMK A01 T01940148  RH  074%=      5-min Rain = 0
KHO1 260534Z 18008KT 19/15 A30 RMK A01 T01940148  RH  075%=      5-min Rain = 0
KHO1 260535Z 17010KT 19/15 A30 RMK A01 T01940149  RH  075%=      5-min Rain = 0
KHO1 260536Z 18009KT 19/15 A30 RMK A01 T01940149  RH  075%=      5-min Rain = 0
KHO1 260537Z 17009KT 19/15 A30 RMK A01 T01940149  RH  075%=      5-min Rain = 0
KHO1 260538Z 17011KT 20/15 A30 RMK A01 T01950150  RH  075%=      5-min Rain = 0
KHO1 260539Z 17009KT 20/15 A30 RMK A01 T01950150  RH  075%=      5-min Rain = 0
KHO1 260540Z 17008KT 20/15 A30 RMK A01 T01950150  RH  075%=      5-min Rain = 0
KHO1 260541Z 17010KT 20/15 A30 RMK A01 T01950151  RH  075%=      5-min Rain = 0
KHO1 260542Z 17010KT 20/15 A2999 RMK A01 T01950151  RH  076%=      5-min Rain = 0
KHO1 260543Z 17009KT 20/15 A2999 RMK A01 T01950151  RH  076%=      5-min Rain = 0
KHO1 260544Z 17010KT 20/15 A2999 RMK A01 T01950151  RH  076%=      5-min Rain = 0
KHO1 260545Z 17008G13KT 20/15 A2999 RMK A01 T01950151  RH  076%=      5-min Rain = 0
KHO1 260546Z 17010KT 20/15 A2999 RMK A01 T01950151  RH  076%=      5-min Rain = 0
KHO1 260547Z 17009KT 20/15 A2999 RMK A01 T01950152  RH  076%=      5-min Rain = 0
KHO1 260548Z 17010KT 19/15 A2999 RMK A01 T01940152  RH  076%=      5-min Rain = 0
KHO1 260549Z 17010KT 19/15 A2999 RMK A01 T01940152  RH  076%=      5-min Rain = 0
KHO1 260550Z 17009KT 19/15 A2999 RMK A01 T01940152  RH  076%=      5-min Rain = 0
KHO1 260551Z 17009KT 19/15 A2999 RMK A01 T01940152  RH  077%=      5-min Rain = 0
KHO1 260552Z 17009KT 19/15 A2999 RMK A01 T01940152  RH  077%=      5-min Rain = 0
KHO1 260553Z 17008KT 19/15 A2999 RMK A01 T01940152  RH  077%=      5-min Rain = 0
KHO1 260554Z 17011KT 19/15 A2999 RMK A01 T01940153  RH  077%=      5-min Rain = 0
KHO1 260555Z 17010KT 19/15 A2999 RMK A01 T01940153  RH  077%=      5-min Rain = 0
KHO1 260556Z 17010KT 19/15 A2999 RMK A01 T01940153  RH  077%=      5-min Rain = 0
KHO1 260557Z 17008KT 19/15 A2999 RMK A01 T01940153  RH  077%=      5-min Rain = 0
KHO1 260558Z 17009KT 19/15 A2999 RMK A01 T01930153  RH  077%=      5-min Rain = 0
KHO1 260559Z 17009KT 19/15 A2999 RMK A01 T01930153  RH  078%=      5-min Rain = 0
KHO1 260600Z 17008KT 19/15 A2999 RMK A01 T01930153  RH  078%=      5-min Rain = 0
KHO1 260601Z 17008KT 19/15 A2999 RMK A01 T01930153  RH  078%=      5-min Rain = 0
KHO1 260602Z 17008KT 19/15 A2999 RMK A01 T01930154  RH  078%=      5-min Rain = 0
KHO1 260603Z 17008KT 19/15 A2999 RMK A01 T01930154  RH  078%=      5-min Rain = 0
KHO1 260604Z 17008KT 19/15 A2999 RMK A01 T01930154  RH  078%=      5-min Rain = 0
KHO1 260605Z 17008KT 19/15 A2999 RMK A01 T01930154  RH  078%=      5-min Rain = 0
KHO1 260606Z 17008KT 19/15 A2999 RMK A01 T01930154  RH  078%=      5-min Rain = 0
KHO1 260607Z 17008KT 19/15 A2999 RMK A01 T01930154  RH  078%=      5-min Rain = 0
KHO1 260608Z 17008KT 19/16 A2999 RMK A01 T01930155  RH  079%=      5-min Rain = 0
KHO1 260609Z 17008KT 19/16 A2999 RMK A01 T01930155  RH  079%=      5-min Rain = 0
KHO1 260610Z 17008KT 19/16 A2999 RMK A01 T01930155  RH  079%=      5-min Rain = 0
KHO1 260611Z 17008KT 19/16 A2999 RMK A01 T01930155  RH  079%=      5-min Rain = 0
KHO1 260612Z 17008KT 19/16 A2999 RMK A01 T01930155  RH  079%=      5-min Rain = 0
KHO1 260613Z 17008KT 19/16 A2999 RMK A01 T01930155  RH  079%=      5-min Rain = 0
KHO1 260614Z 17008KT 19/16 A2999 RMK A01 T01920155  RH  079%=      5-min Rain = 0
KHO1 260615Z 17009KT 19/16 A2999 RMK A01 T01930156  RH  079%=      5-min Rain = 0
KHO1 260616Z 17008KT 19/16 A2999 RMK A01 T01930156  RH  079%=      5-min Rain = 0
KHO1 260617Z 17008KT 19/16 A2999 RMK A01 T01930156  RH  079%=      5-min Rain = 0
KHO1 260618Z 17008KT 19/16 A2999 RMK A01 T01930156  RH  079%=      5-min Rain = 0
KHO1 260619Z 17009KT 19/16 A2999 RMK A01 T01940157  RH  079%=      5-min Rain = 0
KHO1 260620Z 17009KT 19/16 A2998 RMK A01 T01940157  RH  079%=      5-min Rain = 0
KHO1 260621Z 16010KT 19/16 A2998 RMK A01 T01940157  RH  079%=      5-min Rain = 0
KHO1 260622Z 17010KT 20/16 A2998 RMK A01 T01950158  RH  079%=      5-min Rain = 0
KHO1 260623Z 17010KT 20/16 A2998 RMK A01 T01950158  RH  079%=      5-min Rain = 0
KHO1 260624Z 17009KT 20/16 A2998 RMK A01 T01950158  RH  079%=      5-min Rain = 0
KHO1 260625Z 16011KT 20/16 A2999 RMK A01 T01950158  RH  079%=      5-min Rain = 0
KHO1 260626Z 17011KT 20/16 A2998 RMK A01 T01960158  RH  079%=      5-min Rain = 0
KHO1 260627Z 17010KT 20/16 A2999 RMK A01 T01960158  RH  079%=      5-min Rain = 0
KHO1 260628Z 17009KT 20/16 A2999 RMK A01 T01960158  RH  079%=      5-min Rain = 0
KHO1 260629Z 17009KT 20/16 A2999 RMK A01 T01960158  RH  079%=      5-min Rain = 0
KHO1 260630Z 17009KT 20/16 A2999 RMK A01 T01960158  RH  079%=      5-min Rain = 0
KHO1 260631Z 17011KT 20/16 A2999 RMK A01 T01960158  RH  079%=      5-min Rain = 0
KHO1 260632Z 17010KT 20/16 A2998 RMK A01 T01970159  RH  079%=      5-min Rain = 0
KHO1 260633Z 17010KT 20/16 A2998 RMK A01 T01970159  RH  079%=      5-min Rain = 0
KHO1 260634Z 17011KT 20/16 A2998 RMK A01 T01980159  RH  079%=      5-min Rain = 0
KHO1 260635Z 17010KT 20/16 A2998 RMK A01 T01980159  RH  078%=      5-min Rain = 0
KHO1 260636Z 17011KT 20/16 A2998 RMK A01 T01980159  RH  078%=      5-min Rain = 0
KHO1 260637Z 17010KT 20/16 A2998 RMK A01 T01990160  RH  078%=      5-min Rain = 0
KHO1 260638Z 17010KT 20/16 A2998 RMK A01 T01990159  RH  078%=      5-min Rain = 0
KHO1 260639Z 17011KT 20/16 A2998 RMK A01 T01990159  RH  078%=      5-min Rain = 0
KHO1 260640Z 17010KT 20/16 A2998 RMK A01 T01990159  RH  078%=      5-min Rain = 0
KHO1 260641Z 17011KT 20/16 A2998 RMK A01 T01990160  RH  078%=      5-min Rain = 0
KHO1 260642Z 16010KT 20/16 A2998 RMK A01 T01990159  RH  078%=      5-min Rain = 0
KHO1 260643Z 17011KT 20/16 A2998 RMK A01 T01990159  RH  078%=      5-min Rain = 0
KHO1 260644Z 17009KT 20/16 A2998 RMK A01 T01990159  RH  078%=      5-min Rain = 0
KHO1 260645Z 17010KT 20/16 A2998 RMK A01 T01990159  RH  078%=      5-min Rain = 0
KHO1 260646Z 17010KT 20/16 A2998 RMK A01 T01990159  RH  078%=      5-min Rain = 0
KHO1 260647Z 17010KT 20/16 A2998 RMK A01 T01990160  RH  078%=      5-min Rain = 0
KHO1 260648Z 17010KT 20/16 A2998 RMK A01 T01990159  RH  078%=      5-min Rain = 0
KHO1 260649Z 17010KT 20/16 A2998 RMK A01 T01990159  RH  078%=      5-min Rain = 0
KHO1 260650Z 17010KT 20/16 A2998 RMK A01 T01990159  RH  078%=      5-min Rain = 0
KHO1 260651Z 18011KT 20/16 A2998 RMK A01 T02000160  RH  078%=      5-min Rain = 0
KHO1 260652Z 17010KT 20/16 A2998 RMK A01 T02000160  RH  078%=      5-min Rain = 0
KHO1 260653Z 17009KT 20/16 A2998 RMK A01 T02000160  RH  078%=      5-min Rain = 0
KHO1 260654Z 17009KT 20/16 A2998 RMK A01 T02000160  RH  077%=      5-min Rain = 0
KHO1 260655Z 17011KT 20/16 A2998 RMK A01 T02000160  RH  078%=      5-min Rain = 0
KHO1 260656Z 17012KT 20/16 A2998 RMK A01 T02010160  RH  078%=      5-min Rain = 0
KHO1 260657Z 17012KT 20/16 A2998 RMK A01 T02010160  RH  077%=      5-min Rain = 0
KHO1 260658Z 17011KT 20/16 A2998 RMK A01 T02010160  RH  077%=      5-min Rain = 0
KHO1 260659Z 17010KT 20/16 A2998 RMK A01 T02010160  RH  077%=      5-min Rain = 0
KHO1 260700Z 17011KT 20/16 A2998 RMK A01 T02010160  RH  077%=      5-min Rain = 0
KHO1 260701Z 17011KT 20/16 A2998 RMK A01 T02010160  RH  077%=      5-min Rain = 0
KHO1 260702Z 17011KT 20/16 A2998 RMK A01 T02010160  RH  077%=      5-min Rain = 0
KHO1 260703Z 17012KT 20/16 A2998 RMK A01 T02010160  RH  077%=      5-min Rain = 0
KHO1 260704Z 17012KT 20/16 A2998 RMK A01 T02010160  RH  077%=      5-min Rain = 0
KHO1 260705Z 17011KT 20/16 A2998 RMK A01 T02020160  RH  077%=      5-min Rain = 0
KHO1 260706Z 17013KT 20/16 A2998 RMK A01 T02020160  RH  077%=      5-min Rain = 0
KHO1 260707Z 17013KT 20/16 A2998 RMK A01 T02030160  RH  077%=      5-min Rain = 0
KHO1 260708Z 17014KT 20/16 A2998 RMK A01 T02030160  RH  076%=      5-min Rain = 0
KHO1 260709Z 17014KT 20/16 A2998 RMK A01 T02040160  RH  076%=      5-min Rain = 0
KHO1 260710Z 17013KT 20/16 A2998 RMK A01 T02040160  RH  076%=      5-min Rain = 0
KHO1 260711Z 16012KT 20/16 A2998 RMK A01 T02040160  RH  076%=      5-min Rain = 0
KHO1 260712Z 17013KT 20/16 A2998 RMK A01 T02040160  RH  076%=      5-min Rain = 0
KHO1 260713Z 17012KT 20/16 A2998 RMK A01 T02040160  RH  076%=      5-min Rain = 0
KHO1 260714Z 17012KT 20/16 A2998 RMK A01 T02030160  RH  076%=      5-min Rain = 0
KHO1 260715Z 17011KT 20/16 A2998 RMK A01 T02030160  RH  076%=      5-min Rain = 0
KHO1 260716Z 17010KT 20/16 A2998 RMK A01 T02030160  RH  076%=      5-min Rain = 0
KHO1 260717Z 17011KT 20/16 A2998 RMK A01 T02030160  RH  076%=      5-min Rain = 0
KHO1 260718Z 17011KT 20/16 A2998 RMK A01 T02030160  RH  076%=      5-min Rain = 0
KHO1 260719Z 17012KT 20/16 A2998 RMK A01 T02030160  RH  076%=      5-min Rain = 0
KHO1 260720Z 17012KT 20/16 A2997 RMK A01 T02030160  RH  076%=      5-min Rain = 0
KHO1 260721Z 17012KT 20/16 A2997 RMK A01 T02040160  RH  076%=      5-min Rain = 0
KHO1 260722Z 17012KT 20/16 A2998 RMK A01 T02040160  RH  076%=      5-min Rain = 0
KHO1 260723Z 17012KT 20/16 A2997 RMK A01 T02040160  RH  076%=      5-min Rain = 0
KHO1 260724Z 17012KT 20/16 A2997 RMK A01 T02040160  RH  076%=      5-min Rain = 0
KHO1 260725Z 17012KT 21/16 A2997 RMK A01 T02050160  RH  075%=      5-min Rain = 0
KHO1 260726Z 17012KT 21/16 A2997 RMK A01 T02050160  RH  075%=      5-min Rain = 0
KHO1 260727Z 17012KT 21/16 A2997 RMK A01 T02050160  RH  075%=      5-min Rain = 0
KHO1 260728Z 17013KT 21/16 A2998 RMK A01 T02050160  RH  075%=      5-min Rain = 0
KHO1 260729Z 17011KT 21/16 A2998 RMK A01 T02060160  RH  075%=      5-min Rain = 0
KHO1 260730Z 17012KT 21/16 A2998 RMK A01 T02060160  RH  075%=      5-min Rain = 0
KHO1 260731Z 17012KT 21/16 A2998 RMK A01 T02060160  RH  075%=      5-min Rain = 0
KHO1 260732Z 17012KT 21/16 A2998 RMK A01 T02060160  RH  075%=      5-min Rain = 0
KHO1 260733Z 17010KT 21/16 A2998 RMK A01 T02060160  RH  075%=      5-min Rain = 0
KHO1 260734Z 17012G17KT 21/16 A2998 RMK A01 T02060160  RH  075%=      5-min Rain = 0
KHO1 260735Z 17013KT 21/16 A2998 RMK A01 T02060160  RH  075%=      5-min Rain = 0
KHO1 260736Z 17014KT 21/16 A2998 RMK A01 T02070160  RH  074%=      5-min Rain = 0
KHO1 260737Z 17011KT 21/16 A2998 RMK A01 T02080160  RH  074%=      5-min Rain = 0
KHO1 260738Z 17013G18KT 21/16 A2998 RMK A01 T02070160  RH  074%=      5-min Rain = 0
KHO1 260739Z 17014KT 21/16 A2998 RMK A01 T02080160  RH  074%=      5-min Rain = 0
KHO1 260740Z 17012KT 21/16 A2998 RMK A01 T02080160  RH  074%=      5-min Rain = 0
KHO1 260741Z 17012KT 21/16 A2998 RMK A01 T02080160  RH  074%=      5-min Rain = 0
KHO1 260742Z 17014KT 21/16 A2998 RMK A01 T02080160  RH  074%=      5-min Rain = 0
KHO1 260743Z 17013KT 21/16 A2998 RMK A01 T02090160  RH  073%=      5-min Rain = 0
KHO1 260744Z 17012KT 21/16 A2997 RMK A01 T02090159  RH  073%=      5-min Rain = 0
KHO1 260745Z 17012G17KT 21/16 A2997 RMK A01 T02080159  RH  073%=      5-min Rain = 0
KHO1 260746Z 17013KT 21/16 A2997 RMK A01 T02090159  RH  073%=      5-min Rain = 0
KHO1 260747Z 17013KT 21/16 A2997 RMK A01 T02090159  RH  073%=      5-min Rain = 0
KHO1 260748Z 17013KT 21/16 A2997 RMK A01 T02090159  RH  073%=      5-min Rain = 0
KHO1 260749Z 17013KT 21/16 A2997 RMK A01 T02090159  RH  073%=      5-min Rain = 0
KHO1 260750Z 17011KT 21/16 A2997 RMK A01 T02090159  RH  073%=      5-min Rain = 0
KHO1 260751Z 17013KT 21/16 A2997 RMK A01 T02080159  RH  073%=      5-min Rain = 0
KHO1 260752Z 17012KT 21/16 A2997 RMK A01 T02090159  RH  073%=      5-min Rain = 0
KHO1 260753Z 17012KT 21/16 A2997 RMK A01 T02090159  RH  073%=      5-min Rain = 0
KHO1 260754Z 17016KT 21/16 A2997 RMK A01 T02100159  RH  073%=      5-min Rain = 0
KHO1 260755Z 16016KT 21/16 A2997 RMK A01 T02110159  RH  072%=      5-min Rain = 0
KHO1 260756Z 17013KT 21/16 A2997 RMK A01 T02110159  RH  072%=      5-min Rain = 0
KHO1 260757Z 17013KT 21/16 A2997 RMK A01 T02100159  RH  072%=      5-min Rain = 0
KHO1 260758Z 17013KT 21/16 A2997 RMK A01 T02100159  RH  072%=      5-min Rain = 0
KHO1 260759Z 17013KT 21/16 A2997 RMK A01 T02100159  RH  073%=      5-min Rain = 0
KHO1 260800Z 17013KT 21/16 A2997 RMK A01 T02100159  RH  073%=      5-min Rain = 0
KHO1 260801Z 17013KT 21/16 A2997 RMK A01 T02100159  RH  072%=      5-min Rain = 0
KHO1 260802Z 17014KT 21/16 A2997 RMK A01 T02100159  RH  072%=      5-min Rain = 0
KHO1 260803Z 17013KT 21/16 A2997 RMK A01 T02100159  RH  072%=      5-min Rain = 0
KHO1 260804Z 17012G17KT 21/16 A2997 RMK A01 T02100159  RH  072%=      5-min Rain = 0
KHO1 260805Z 17012KT 21/16 A2997 RMK A01 T02100159  RH  072%=      5-min Rain = 0
KHO1 260806Z 17013KT 21/16 A2997 RMK A01 T02090158  RH  073%=      5-min Rain = 0
KHO1 260807Z 17012KT 21/16 A2997 RMK A01 T02090159  RH  073%=      5-min Rain = 0
KHO1 260808Z 17014KT 21/16 A2997 RMK A01 T02100159  RH  073%=      5-min Rain = 0
KHO1 260809Z 17012G18KT 21/16 A2997 RMK A01 T02100159  RH  072%=      5-min Rain = 0
KHO1 260810Z 17012KT 21/16 A2997 RMK A01 T02090158  RH  073%=      5-min Rain = 0
KHO1 260811Z 17012KT 21/16 A2997 RMK A01 T02090158  RH  073%=      5-min Rain = 0
KHO1 260812Z 17013KT 21/16 A2998 RMK A01 T02090158  RH  073%=      5-min Rain = 0
KHO1 260813Z 17014KT 21/16 A2997 RMK A01 T02100159  RH  073%=      5-min Rain = 0
KHO1 260814Z 18014KT 21/16 A2997 RMK A01 T02100159  RH  072%=      5-min Rain = 0
KHO1 260815Z 17013G18KT 21/16 A2997 RMK A01 T02100158  RH  072%=      5-min Rain = 0
KHO1 260816Z 17013KT 21/16 A2997 RMK A01 T02100158  RH  072%=      5-min Rain = 0
KHO1 260817Z 17012KT 21/16 A2997 RMK A01 T02100158  RH  072%=      5-min Rain = 0
KHO1 260818Z 18012KT 21/16 A2997 RMK A01 T02100158  RH  072%=      5-min Rain = 0
KHO1 260819Z 18012KT 21/16 A2998 RMK A01 T02090158  RH  072%=      5-min Rain = 0
KHO1 260820Z 18013KT 21/16 A2998 RMK A01 T02090158  RH  073%=      5-min Rain = 0
KHO1 260821Z 18014G19KT 21/16 A2998 RMK A01 T02090158  RH  073%=      5-min Rain = 0
KHO1 260822Z 17014KT 21/16 A2998 RMK A01 T02100158  RH  072%=      5-min Rain = 0
KHO1 260823Z 18012KT 21/16 A2998 RMK A01 T02100158  RH  072%=      5-min Rain = 0
KHO1 260824Z 18014KT 21/16 A2998 RMK A01 T02090158  RH  072%=      5-min Rain = 0
KHO1 260825Z 18013KT 21/16 A2998 RMK A01 T02090158  RH  072%=      5-min Rain = 0
KHO1 260826Z 18013KT 21/16 A2998 RMK A01 T02090158  RH  072%=      5-min Rain = 0
KHO1 260827Z 18013KT 21/16 A2998 RMK A01 T02090158  RH  072%=      5-min Rain = 0
KHO1 260828Z 17011KT 21/16 A2998 RMK A01 T02090158  RH  072%=      5-min Rain = 0
KHO1 260829Z 18011KT 21/16 A2998 RMK A01 T02090158  RH  073%=      5-min Rain = 0
KHO1 260830Z 17011KT 21/16 A2997 RMK A01 T02080158  RH  073%=      5-min Rain = 0
KHO1 260831Z 17012KT 21/16 A2997 RMK A01 T02080158  RH  073%=      5-min Rain = 0
KHO1 260832Z 17013KT 21/16 A2997 RMK A01 T02080158  RH  073%=      5-min Rain = 0
KHO1 260833Z 17013KT 21/16 A2997 RMK A01 T02080158  RH  073%=      5-min Rain = 0
KHO1 260834Z 17012KT 21/16 A2997 RMK A01 T02080158  RH  073%=      5-min Rain = 0
KHO1 260835Z 17014KT 21/16 A2997 RMK A01 T02070158  RH  073%=      5-min Rain = 0
KHO1 260836Z 17014KT 21/16 A2997 RMK A01 T02080158  RH  073%=      5-min Rain = 0
KHO1 260837Z 17013KT 21/16 A2997 RMK A01 T02080158  RH  073%=      5-min Rain = 0
KHO1 260838Z 17011KT 21/16 A2997 RMK A01 T02070158  RH  073%=      5-min Rain = 0
KHO1 260839Z 17012KT 21/16 A2997 RMK A01 T02070158  RH  073%=      5-min Rain = 0
KHO1 260840Z 17012KT 21/16 A2997 RMK A01 T02070158  RH  073%=      5-min Rain = 0
KHO1 260841Z 18014KT 21/16 A2997 RMK A01 T02070158  RH  074%=      5-min Rain = 0
KHO1 260842Z 17017KT 21/16 A2998 RMK A01 T02070158  RH  073%=      5-min Rain = 0
KHO1 260843Z 18014KT 21/16 A2997 RMK A01 T02080158  RH  073%=      5-min Rain = 0
KHO1 260844Z 18012KT 21/16 A2998 RMK A01 T02080158  RH  073%=      5-min Rain = 0
KHO1 260845Z 18014KT 21/16 A2998 RMK A01 T02070158  RH  073%=      5-min Rain = 0
KHO1 260846Z 18013KT 21/16 A2998 RMK A01 T02070158  RH  073%=      5-min Rain = 0
KHO1 260847Z 18013KT 21/16 A2998 RMK A01 T02070158  RH  073%=      5-min Rain = 0
KHO1 260848Z 18012KT 21/16 A2998 RMK A01 T02070158  RH  073%=      5-min Rain = 0
KHO1 260849Z 18012KT 21/16 A2998 RMK A01 T02070158  RH  073%=      5-min Rain = 0
KHO1 260850Z 17012KT 21/16 A2998 RMK A01 T02070158  RH  073%=      5-min Rain = 0
KHO1 260851Z 18012KT 21/16 A2998 RMK A01 T02070158  RH  073%=      5-min Rain = 0
KHO1 260852Z 18014KT 21/16 A2998 RMK A01 T02060158  RH  074%=      5-min Rain = 0
KHO1 260853Z 18012KT 21/16 A2998 RMK A01 T02070158  RH  073%=      5-min Rain = 0
KHO1 260854Z 18012KT 21/16 A2998 RMK A01 T02060158  RH  074%=      5-min Rain = 0
KHO1 260855Z 18011KT 21/16 A2998 RMK A01 T02060158  RH  074%=      5-min Rain = 0
KHO1 260856Z 17012KT 21/16 A2998 RMK A01 T02060158  RH  074%=      5-min Rain = 0
KHO1 260857Z 17012KT 21/16 A2998 RMK A01 T02060158  RH  074%=      5-min Rain = 0
KHO1 260858Z 17012KT 21/16 A2998 RMK A01 T02060158  RH  074%=      5-min Rain = 0
KHO1 260859Z 17011KT 21/16 A2997 RMK A01 T02060158  RH  074%=      5-min Rain = 0
KHO1 260900Z 17013KT 21/16 A2997 RMK A01 T02060158  RH  074%=      5-min Rain = 0
KHO1 260901Z 17012KT 21/16 A2997 RMK A01 T02060158  RH  074%=      5-min Rain = 0
KHO1 260902Z 17010KT 21/16 A2997 RMK A01 T02050158  RH  074%=      5-min Rain = 0
KHO1 260903Z 18010KT 21/16 A2997 RMK A01 T02050158  RH  074%=      5-min Rain = 0
KHO1 260904Z 18011KT 20/16 A2997 RMK A01 T02040158  RH  075%=      5-min Rain = 0
KHO1 260905Z 17011KT 20/16 A2997 RMK A01 T02040158  RH  075%=      5-min Rain = 0
KHO1 260906Z 17013G18KT 21/16 A2997 RMK A01 T02050158  RH  075%=      5-min Rain = 0
KHO1 260907Z 17013G18KT 21/16 A2997 RMK A01 T02050158  RH  075%=      5-min Rain = 0
KHO1 260908Z 18011KT 21/16 A2997 RMK A01 T02050158  RH  074%=      5-min Rain = 0
KHO1 260909Z 17010KT 20/16 A2997 RMK A01 T02040158  RH  075%=      5-min Rain = 0
KHO1 260910Z 18011KT 20/16 A2997 RMK A01 T02040158  RH  075%=      5-min Rain = 0
KHO1 260911Z 17013KT 20/16 A2997 RMK A01 T02040158  RH  075%=      5-min Rain = 0
KHO1 260912Z 17012KT 20/16 A2997 RMK A01 T02040158  RH  075%=      5-min Rain = 0
KHO1 260913Z 17011KT 20/16 A2997 RMK A01 T02040158  RH  075%=      5-min Rain = 0
KHO1 260914Z 17011KT 20/16 A2997 RMK A01 T02040158  RH  075%=      5-min Rain = 0
KHO1 260915Z 17011KT 20/16 A2997 RMK A01 T02030158  RH  075%=      5-min Rain = 0
KHO1 260916Z 18009G14KT 20/16 A2997 RMK A01 T02030158  RH  075%=      5-min Rain = 0
KHO1 260917Z 17011KT 20/16 A2997 RMK A01 T02030158  RH  075%=      5-min Rain = 0
KHO1 260918Z 17011KT 20/16 A2997 RMK A01 T02030159  RH  076%=      5-min Rain = 0
KHO1 260919Z 17011KT 20/16 A2997 RMK A01 T02030159  RH  076%=      5-min Rain = 0
KHO1 260920Z 17012KT 20/16 A2997 RMK A01 T02030159  RH  076%=      5-min Rain = 0
KHO1 260921Z 17010KT 20/16 A2997 RMK A01 T02030159  RH  076%=      5-min Rain = 0
KHO1 260922Z 17010KT 20/16 A2997 RMK A01 T02020159  RH  076%=      5-min Rain = 0
KHO1 260923Z 17012KT 20/16 A2997 RMK A01 T02020159  RH  076%=      5-min Rain = 0
KHO1 260924Z 17012KT 20/16 A2997 RMK A01 T02030159  RH  076%=      5-min Rain = 0
KHO1 260925Z 18012KT 20/16 A2997 RMK A01 T02030159  RH  076%=      5-min Rain = 0
KHO1 260926Z 17010KT 20/16 A2997 RMK A01 T02020159  RH  076%=      5-min Rain = 0
KHO1 260927Z 17010KT 20/16 A2997 RMK A01 T02020159  RH  076%=      5-min Rain = 0
KHO1 260928Z 17011KT 20/16 A2997 RMK A01 T02020159  RH  076%=      5-min Rain = 0
KHO1 260929Z 17012KT 20/16 A2997 RMK A01 T02020160  RH  077%=      5-min Rain = 0
KHO1 260930Z 17011KT 20/16 A2997 RMK A01 T02020160  RH  077%=      5-min Rain = 0
KHO1 260931Z 17010KT 20/16 A2997 RMK A01 T02020160  RH  077%=      5-min Rain = 0
KHO1 260932Z 17010KT 20/16 A2997 RMK A01 T02020160  RH  077%=      5-min Rain = 0
KHO1 260933Z 17012KT 20/16 A2997 RMK A01 T02010160  RH  077%=      5-min Rain = 0
KHO1 260934Z 17011KT 20/16 A2997 RMK A01 T02010160  RH  077%=      5-min Rain = 0
KHO1 260935Z 17011KT 20/16 A2997 RMK A01 T02010160  RH  077%=      5-min Rain = 0
KHO1 260936Z 17011KT 20/16 A2997 RMK A01 T02010160  RH  077%=      5-min Rain = 0
KHO1 260937Z 17008KT 20/16 A2997 RMK A01 T02010160  RH  077%=      5-min Rain = 0
KHO1 260938Z 17010KT 20/16 A2997 RMK A01 T02000160  RH  077%=      5-min Rain = 0
KHO1 260939Z 17011KT 20/16 A2997 RMK A01 T02000160  RH  078%=      5-min Rain = 0
KHO1 260940Z 17011KT 20/16 A2997 RMK A01 T02000160  RH  078%=      5-min Rain = 0
KHO1 260941Z 17010KT 20/16 A2997 RMK A01 T02000160  RH  078%=      5-min Rain = 0
KHO1 260942Z 17011KT 20/16 A2997 RMK A01 T02000160  RH  078%=      5-min Rain = 0
KHO1 260943Z 17010KT 20/16 A2997 RMK A01 T02000160  RH  078%=      5-min Rain = 0
KHO1 260944Z 17009KT 20/16 A2997 RMK A01 T02000160  RH  078%=      5-min Rain = 0
KHO1 260945Z 17010KT 20/16 A2997 RMK A01 T01990160  RH  078%=      5-min Rain = 0
KHO1 260946Z 17011G16KT 20/16 A2997 RMK A01 T01990160  RH  078%=      5-min Rain = 0
KHO1 260947Z 17008KT 20/16 A2997 RMK A01 T01990160  RH  078%=      5-min Rain = 0
KHO1 260948Z 17009KT 20/16 A2997 RMK A01 T01990160  RH  079%=      5-min Rain = 0
KHO1 260949Z 17009KT 20/16 A2997 RMK A01 T01990160  RH  079%=      5-min Rain = 0
KHO1 260950Z 17009KT 20/16 A2997 RMK A01 T01980160  RH  079%=      5-min Rain = 0
KHO1 260951Z 17008KT 20/16 A2997 RMK A01 T01980160  RH  079%=      5-min Rain = 0
KHO1 260952Z 17009KT 20/16 A2997 RMK A01 T01980161  RH  079%=      5-min Rain = 0
KHO1 260953Z 17008KT 20/16 A2997 RMK A01 T01980161  RH  079%=      5-min Rain = 0
KHO1 260954Z 17008KT 20/16 A2997 RMK A01 T01980161  RH  079%=      5-min Rain = 0
KHO1 260955Z 17009KT 20/16 A2997 RMK A01 T01980160  RH  079%=      5-min Rain = 0
KHO1 260956Z 17010KT 20/16 A2997 RMK A01 T01970160  RH  079%=      5-min Rain = 0
KHO1 260957Z 16010KT 20/16 A2997 RMK A01 T01970161  RH  079%=      5-min Rain = 0
KHO1 260958Z 17008KT 20/16 A2997 RMK A01 T01970160  RH  079%=      5-min Rain = 0
KHO1 260959Z 17009KT 20/16 A2997 RMK A01 T01970160  RH  080%=      5-min Rain = 0
KHO1 261000Z 16010KT 20/16 A2997 RMK A01 T01960161  RH  080%=      5-min Rain = 0
KHO1 261001Z 16010KT 20/16 A2997 RMK A01 T01960161  RH  080%=      5-min Rain = 0
KHO1 261002Z 16010KT 20/16 A2997 RMK A01 T01970161  RH  080%=      5-min Rain = 0
KHO1 261003Z 17012KT 20/16 A2997 RMK A01 T01960162  RH  080%=      5-min Rain = 0
KHO1 261004Z 16012G17KT 20/16 A2997 RMK A01 T01970163  RH  080%=      5-min Rain = 0
KHO1 261005Z 16014KT 20/16 A2997 RMK A01 T01970163  RH  080%=      5-min Rain = 0
KHO1 261006Z 16011KT 20/16 A2997 RMK A01 T01970163  RH  080%=      5-min Rain = 0
KHO1 261007Z 17016KT 20/16 A2997 RMK A01 T01970164  RH  081%=      5-min Rain = 0
KHO1 261008Z 17016KT 20/16 A2996 RMK A01 T01980164  RH  081%=      5-min Rain = 0
KHO1 261009Z 16014G19KT 20/17 A2996 RMK A01 T01980165  RH  081%=      5-min Rain = 0
KHO1 261010Z 17014KT 20/17 A2996 RMK A01 T01980165  RH  081%=      5-min Rain = 0
KHO1 261011Z 17014KT 20/17 A2996 RMK A01 T01980165  RH  081%=      5-min Rain = 0
KHO1 261012Z 17016KT 20/17 A2997 RMK A01 T01980166  RH  082%=      5-min Rain = 0
KHO1 261013Z 17015KT 20/17 A2997 RMK A01 T01980166  RH  082%=      5-min Rain = 0
KHO1 261014Z 16014KT 20/17 A2997 RMK A01 T01980166  RH  082%=      5-min Rain = 0
KHO1 261015Z 16014KT 20/17 A2997 RMK A01 T01980166  RH  082%=      5-min Rain = 0
KHO1 261016Z 16013G18KT 20/17 A2997 RMK A01 T01980166  RH  082%=      5-min Rain = 0
KHO1 261017Z 16015KT 20/17 A2997 RMK A01 T01980167  RH  082%=      5-min Rain = 0
KHO1 261018Z 16014KT 20/17 A2997 RMK A01 T01980167  RH  082%=      5-min Rain = 0
KHO1 261019Z 16013KT 20/17 A2997 RMK A01 T01980167  RH  082%=      5-min Rain = 0
KHO1 261020Z 15012KT 20/17 A2997 RMK A01 T01970167  RH  083%=      5-min Rain = 0
KHO1 261021Z 16012KT 20/17 A2997 RMK A01 T01970167  RH  083%=      5-min Rain = 0
KHO1 261022Z 16011KT 20/17 A2997 RMK A01 T01970167  RH  083%=      5-min Rain = 0
KHO1 261023Z 16011KT 20/17 A2997 RMK A01 T01970167  RH  083%=      5-min Rain = 0
KHO1 261024Z 17011KT 20/17 A2997 RMK A01 T01970167  RH  083%=      5-min Rain = 0
KHO1 261025Z 16011KT 20/17 A2997 RMK A01 T01970167  RH  083%=      5-min Rain = 0
KHO1 261026Z 16012KT 20/17 A2997 RMK A01 T01960167  RH  083%=      5-min Rain = 0
KHO1 261027Z 17011KT 20/17 A2997 RMK A01 T01960167  RH  083%=      5-min Rain = 0
KHO1 261028Z 16012KT 20/17 A2997 RMK A01 T01960168  RH  084%=      5-min Rain = 0
KHO1 261029Z 16013KT 20/17 A2997 RMK A01 T01960168  RH  084%=      5-min Rain = 0
KHO1 261030Z 16010KT 20/17 A2997 RMK A01 T01960168  RH  084%=      5-min Rain = 0
KHO1 261031Z 16009KT 20/17 A2997 RMK A01 T01950167  RH  084%=      5-min Rain = 0
KHO1 261032Z 16010KT 20/17 A2997 RMK A01 T01950167  RH  084%=      5-min Rain = 0
KHO1 261033Z 15011KT 19/17 A2997 RMK A01 T01940168  RH  084%=      5-min Rain = 0
KHO1 261034Z 16010KT 19/17 A2997 RMK A01 T01940168  RH  085%=      5-min Rain = 0
KHO1 261035Z 16008KT 19/17 A2997 RMK A01 T01940167  RH  085%=      5-min Rain = 0
KHO1 261036Z 15008KT 19/17 A2997 RMK A01 T01940167  RH  085%=      5-min Rain = 0
KHO1 261037Z 15008KT 19/17 A2997 RMK A01 T01930167  RH  085%=      5-min Rain = 0
KHO1 261038Z 15007KT 19/17 A2998 RMK A01 T01930167  RH  085%=      5-min Rain = 0
KHO1 261039Z 15010KT 19/17 A2997 RMK A01 T01930168  RH  085%=      5-min Rain = 0
KHO1 261040Z 15008KT 19/17 A2997 RMK A01 T01930168  RH  085%=      5-min Rain = 0
KHO1 261041Z 15010KT 19/17 A2997 RMK A01 T01940168  RH  085%=      5-min Rain = 0
KHO1 261042Z 15008KT 19/17 A2998 RMK A01 T01940169  RH  085%=      5-min Rain = 0
KHO1 261043Z 15010KT 19/17 A2998 RMK A01 T01940169  RH  085%=      5-min Rain = 0
KHO1 261044Z 15013KT 20/17 A2998 RMK A01 T01950169  RH  085%=      5-min Rain = 0
KHO1 261045Z 16010KT 20/17 A2998 RMK A01 T01960170  RH  085%=      5-min Rain = 0
KHO1 261046Z 16010KT 20/17 A2997 RMK A01 T01960170  RH  085%=      5-min Rain = 0
KHO1 261047Z 16012KT 20/17 A2998 RMK A01 T01960170  RH  085%=      5-min Rain = 0
KHO1 261048Z 17014KT 20/17 A2998 RMK A01 T01970171  RH  085%=      5-min Rain = 0
KHO1 261049Z 16013KT 20/17 A2998 RMK A01 T01970171  RH  085%=      5-min Rain = 0
KHO1 261050Z 16011KT 20/17 A2998 RMK A01 T01970171  RH  085%=      5-min Rain = 0
KHO1 261051Z 17013KT 20/17 A2998 RMK A01 T01970171  RH  085%=      5-min Rain = 0
KHO1 261052Z 17012KT 20/17 A2997 RMK A01 T01970171  RH  085%=      5-min Rain = 0
KHO1 261053Z 16013KT 20/17 A2997 RMK A01 T01980171  RH  085%=      5-min Rain = 0
KHO1 261054Z 16013KT 20/17 A2997 RMK A01 T01980172  RH  085%=      5-min Rain = 0
KHO1 261055Z 15015KT 20/17 A2997 RMK A01 T01980172  RH  085%=      5-min Rain = 0
KHO1 261056Z 16013KT 20/17 A2997 RMK A01 T01980172  RH  085%=      5-min Rain = 0
KHO1 261057Z 16012KT 20/17 A2997 RMK A01 T01990172  RH  085%=      5-min Rain = 0
KHO1 261058Z 16012KT 20/17 A2997 RMK A01 T01990172  RH  085%=      5-min Rain = 0
KHO1 261059Z 16015KT 20/17 A2997 RMK A01 T01990173  RH  085%=      5-min Rain = 0
KHO1 261100Z 17014KT 20/17 A2998 RMK A01 T01990173  RH  085%=      5-min Rain = 0
KHO1 261101Z 16016KT 20/17 A2998 RMK A01 T01990173  RH  085%=      5-min Rain = 0
KHO1 261102Z 17018KT 20/17 A2998 RMK A01 T02000174  RH  085%=      5-min Rain = 0
KHO1 261103Z 16018KT 20/17 A2998 RMK A01 T02000174  RH  085%=      5-min Rain = 0
KHO1 261104Z 16017KT 20/17 A2998 RMK A01 T02000174  RH  085%=      5-min Rain = 0
KHO1 261105Z 17015G20KT 20/17 A2998 RMK A01 T02000174  RH  085%=      5-min Rain = 0
KHO1 261106Z 16013KT 20/17 A2998 RMK A01 T02000174  RH  085%=      5-min Rain = 0
KHO1 261107Z 15011KT 20/17 A2998 RMK A01 T02000174  RH  085%=      5-min Rain = 0
KHO1 261108Z 17012KT 20/17 A2998 RMK A01 T02000174  RH  085%=      5-min Rain = 0
KHO1 261109Z 17012KT 20/17 A2998 RMK A01 T02010174  RH  085%=      5-min Rain = 0
KHO1 261110Z 16012KT 20/17 A2998 RMK A01 T02010174  RH  085%=      5-min Rain = 0
KHO1 261111Z 16014KT 20/17 A2998 RMK A01 T02010174  RH  085%=      5-min Rain = 0
KHO1 261112Z 16012KT 20/17 A2998 RMK A01 T02010174  RH  085%=      5-min Rain = 0
KHO1 261113Z 16014KT 20/17 A2998 RMK A01 T02010174  RH  085%=      5-min Rain = 0
KHO1 261114Z 17013KT 20/17 A2998 RMK A01 T02010174  RH  085%=      5-min Rain = 0
KHO1 261115Z 16015KT 20/17 A2998 RMK A01 T02010174  RH  085%=      5-min Rain = 0
KHO1 261116Z 16015KT 20/17 A2998 RMK A01 T02010174  RH  085%=      5-min Rain = 0
KHO1 261117Z 16015KT 20/17 A2998 RMK A01 T02010174  RH  085%=      5-min Rain = 0
KHO1 261118Z 16013KT 20/17 A2998 RMK A01 T02010174  RH  085%=      5-min Rain = 0
KHO1 261119Z 16013KT 20/18 A2998 RMK A01 T02010175  RH  085%=      5-min Rain = 0
KHO1 261120Z 16013KT 20/18 A2998 RMK A01 T02010175  RH  085%=      5-min Rain = 0
KHO1 261121Z 16012KT 20/17 A2998 RMK A01 T02010174  RH  085%=      5-min Rain = 0
KHO1 261122Z 16014KT 20/17 A2998 RMK A01 T02010174  RH  085%=      5-min Rain = 0
KHO1 261123Z 16013KT 20/18 A2998 RMK A01 T02010175  RH  085%=      5-min Rain = 0
KHO1 261124Z 16013KT 20/18 A2998 RMK A01 T02010175  RH  085%=      5-min Rain = 0
KHO1 261125Z 16012KT 20/18 A2998 RMK A01 T02010175  RH  085%=      5-min Rain = 0
KHO1 261126Z 16013KT 20/18 A2998 RMK A01 T02010175  RH  085%=      5-min Rain = 0
KHO1 261127Z 16011KT 20/18 A2998 RMK A01 T02010175  RH  085%=      5-min Rain = 0
KHO1 261128Z 16012KT 20/18 A2998 RMK A01 T02010175  RH  085%=      5-min Rain = 0
KHO1 261129Z 16011KT 20/18 A2998 RMK A01 T02010175  RH  085%=      5-min Rain = 0
KHO1 261130Z 17012KT 20/18 A2998 RMK A01 T02010175  RH  085%=      5-min Rain = 0
KHO1 261131Z 17013KT 20/18 A2998 RMK A01 T02010175  RH  085%=      5-min Rain = 0
KHO1 261132Z 16013KT 20/18 A2998 RMK A01 T02010175  RH  085%=      5-min Rain = 0
KHO1 261133Z 16013KT 20/18 A2998 RMK A01 T02010175  RH  085%=      5-min Rain = 0
KHO1 261134Z 16011KT 20/18 A2998 RMK A01 T02010175  RH  085%=      5-min Rain = 0
KHO1 261135Z 16011G17KT 20/18 A2998 RMK A01 T02010175  RH  085%=      5-min Rain = 0
KHO1 261136Z 16015KT 20/18 A2998 RMK A01 T02010175  RH  085%=      5-min Rain = 0
KHO1 261137Z 15012KT 20/18 A2998 RMK A01 T02010175  RH  085%=      5-min Rain = 0
KHO1 261138Z 16012G17KT 20/18 A2998 RMK A01 T02020175  RH  085%=      5-min Rain = 0
KHO1 261139Z 16013KT 20/18 A2998 RMK A01 T02020175  RH  085%=      5-min Rain = 0
KHO1 261140Z 16012KT 20/18 A2999 RMK A01 T02010175  RH  085%=      5-min Rain = 0
KHO1 261141Z 17011KT 20/18 A2999 RMK A01 T02010175  RH  085%=      5-min Rain = 0
KHO1 261142Z 16013KT 20/18 A2999 RMK A01 T02010175  RH  085%=      5-min Rain = 0
KHO1 261143Z 16014KT 20/18 A2999 RMK A01 T02020175  RH  085%=      5-min Rain = 0
KHO1 261144Z 17010KT 20/18 A2999 RMK A01 T02010175  RH  085%=      5-min Rain = 0
KHO1 261145Z 17012KT 20/18 A2999 RMK A01 T02010175  RH  085%=      5-min Rain = 0
KHO1 261146Z 16013KT 20/18 A2999 RMK A01 T02020175  RH  085%=      5-min Rain = 0
KHO1 261147Z 16014KT 20/18 A2999 RMK A01 T02020175  RH  085%=      5-min Rain = 0
KHO1 261148Z 16013KT 20/18 A2999 RMK A01 T02020175  RH  085%=      5-min Rain = 0
KHO1 261149Z 17011KT 20/18 A2999 RMK A01 T02020175  RH  085%=      5-min Rain = 0
KHO1 261150Z 18013KT 20/18 A2999 RMK A01 T02020175  RH  085%=      5-min Rain = 0
KHO1 261151Z 17012KT 20/18 A2999 RMK A01 T02020175  RH  085%=      5-min Rain = 0
KHO1 261152Z 17013KT 20/18 A2999 RMK A01 T02020175  RH  085%=      5-min Rain = 0
KHO1 261153Z 16012KT 20/18 A2999 RMK A01 T02020175  RH  085%=      5-min Rain = 0
KHO1 261154Z 16013KT 20/18 A2999 RMK A01 T02020175  RH  084%=      5-min Rain = 0
KHO1 261155Z 16014KT 20/18 A2999 RMK A01 T02020175  RH  084%=      5-min Rain = 0
KHO1 261156Z 16014KT 20/18 A2999 RMK A01 T02020175  RH  085%=      5-min Rain = 0
KHO1 261157Z 16015KT 20/18 A2999 RMK A01 T02020175  RH  085%=      5-min Rain = 0
KHO1 261158Z 16013KT 20/18 A2999 RMK A01 T02020175  RH  084%=      5-min Rain = 0
KHO1 261159Z 16012KT 20/18 A2999 RMK A01 T02020175  RH  085%=      5-min Rain = 0
KHO1 261200Z 16010KT 20/18 A2999 RMK A01 T02020175  RH  085%=      5-min Rain = 0
KHO1 261201Z 16011KT 20/18 A2999 RMK A01 T02020175  RH  085%=      5-min Rain = 0
KHO1 261202Z 16014KT 20/18 A2999 RMK A01 T02020175  RH  084%=      5-min Rain = 0
KHO1 261203Z 16014KT 20/18 A2999 RMK A01 T02020175  RH  085%=      5-min Rain = 0
KHO1 261204Z 16013KT 20/18 A2999 RMK A01 T02020175  RH  085%=      5-min Rain = 0
KHO1 261205Z 16013KT 20/18 A30 RMK A01 T02020175  RH  085%=      5-min Rain = 0
KHO1 261206Z 16011KT 20/18 A2999 RMK A01 T02020175  RH  085%=      5-min Rain = 0
KHO1 261207Z 16012KT 20/18 A30 RMK A01 T02020175  RH  085%=      5-min Rain = 0
KHO1 261208Z 16012KT 20/18 A2999 RMK A01 T02020175  RH  084%=      5-min Rain = 0
KHO1 261209Z 15014KT 20/18 A2999 RMK A01 T02020175  RH  084%=      5-min Rain = 0
KHO1 261210Z 16014KT 20/18 A2999 RMK A01 T02020175  RH  084%=      5-min Rain = 0
KHO1 261211Z 16013KT 20/18 A2999 RMK A01 T02020175  RH  084%=      5-min Rain = 0
KHO1 261212Z 16017KT 20/18 A2999 RMK A01 T02020175  RH  084%=      5-min Rain = 0
KHO1 261213Z 16011KT 20/18 A2999 RMK A01 T02020175  RH  084%=      5-min Rain = 0
KHO1 261214Z 17014KT 20/18 A2999 RMK A01 T02020175  RH  084%=      5-min Rain = 0
KHO1 261215Z 16013KT 20/18 A2999 RMK A01 T02020175  RH  084%=      5-min Rain = 0
KHO1 261216Z 16011KT 20/18 A2999 RMK A01 T02020175  RH  084%=      5-min Rain = 0
KHO1 261217Z 16012KT 20/18 A2999 RMK A01 T02020175  RH  084%=      5-min Rain = 0
KHO1 261218Z 16011KT 20/18 A2999 RMK A01 T02020175  RH  084%=      5-min Rain = 0
KHO1 261219Z 16012KT 20/18 A2999 RMK A01 T02020175  RH  084%=      5-min Rain = 0
KHO1 261220Z 16013KT 20/18 A2999 RMK A01 T02020175  RH  084%=      5-min Rain = 0
KHO1 261221Z 16014KT 20/18 A2999 RMK A01 T02020175  RH  084%=      5-min Rain = 0
KHO1 261222Z 16012KT 20/18 A30 RMK A01 T02020175  RH  084%=      5-min Rain = 0
KHO1 261223Z 16010KT 20/18 A30 RMK A01 T02020175  RH  084%=      5-min Rain = 0
KHO1 261224Z 16012KT 20/18 A30 RMK A01 T02020175  RH  084%=      5-min Rain = 0
KHO1 261225Z 16011KT 20/18 A30 RMK A01 T02030175  RH  084%=      5-min Rain = 0
KHO1 261226Z 16015KT 20/18 A30 RMK A01 T02030175  RH  084%=      5-min Rain = 0
KHO1 261227Z 16012KT 20/18 A30 RMK A01 T02020175  RH  084%=      5-min Rain = 0
KHO1 261228Z 15012KT 20/18 A30 RMK A01 T02030175  RH  084%=      5-min Rain = 0
KHO1 261229Z 16011KT 20/18 A30 RMK A01 T02030175  RH  084%=      5-min Rain = 0
KHO1 261230Z 16014KT 20/18 A30 RMK A01 T02030175  RH  084%=      5-min Rain = 0
KHO1 261231Z 16013KT 20/18 A30 RMK A01 T02030175  RH  084%=      5-min Rain = 0
KHO1 261232Z 16012KT 20/18 A30 RMK A01 T02030175  RH  084%=      5-min Rain = 0
KHO1 261233Z 16014KT 20/18 A30 RMK A01 T02030175  RH  084%=      5-min Rain = 0
KHO1 261234Z 16013KT 20/18 A30 RMK A01 T02030175  RH  084%=      5-min Rain = 0
KHO1 261235Z 16015KT 20/18 A2999 RMK A01 T02030175  RH  084%=      5-min Rain = 0
KHO1 261236Z 15016KT 20/17 A2999 RMK A01 T02030174  RH  084%=      5-min Rain = 0
KHO1 261237Z 15012KT 20/18 A30 RMK A01 T02030175  RH  084%=      5-min Rain = 0
KHO1 261238Z 15013KT 20/18 A30 RMK A01 T02030175  RH  084%=      5-min Rain = 0
KHO1 261239Z 16014KT 20/18 A30 RMK A01 T02030175  RH  084%=      5-min Rain = 0
KHO1 261240Z 16012KT 20/18 A30 RMK A01 T02030175  RH  084%=      5-min Rain = 0
KHO1 261241Z 15015KT 20/17 A30 RMK A01 T02030174  RH  084%=      5-min Rain = 0
KHO1 261242Z 17014KT 20/17 A30 RMK A01 T02030174  RH  083%=      5-min Rain = 0
KHO1 261243Z 16014KT 20/17 A30 RMK A01 T02030174  RH  084%=      5-min Rain = 0
KHO1 261244Z 16014KT 20/17 A30 RMK A01 T02030174  RH  084%=      5-min Rain = 0
KHO1 261245Z 15016KT 20/17 A30 RMK A01 T02030174  RH  083%=      5-min Rain = 0
KHO1 261246Z 16016KT 20/17 A30 RMK A01 T02030174  RH  083%=      5-min Rain = 0
KHO1 261247Z 16013KT 20/17 A30 RMK A01 T02030174  RH  083%=      5-min Rain = 0
KHO1 261248Z 16015G20KT 20/17 A30 RMK A01 T02040174  RH  083%=      5-min Rain = 0
KHO1 261249Z 16016KT 20/17 A30 RMK A01 T02030174  RH  083%=      5-min Rain = 0
KHO1 261250Z 16014KT 20/17 A30 RMK A01 T02030174  RH  083%=      5-min Rain = 0
KHO1 261251Z 16014KT 20/17 A30 RMK A01 T02040174  RH  083%=      5-min Rain = 0
KHO1 261252Z 16015KT 20/17 A30 RMK A01 T02030174  RH  083%=      5-min Rain = 0
KHO1 261253Z 16016KT 20/17 A30 RMK A01 T02030174  RH  083%=      5-min Rain = 0
KHO1 261254Z 16017KT 20/17 A30 RMK A01 T02030174  RH  083%=      5-min Rain = 0
KHO1 261255Z 16014KT 20/17 A30 RMK A01 T02030174  RH  083%=      5-min Rain = 0
KHO1 261256Z 16014G19KT 20/17 A30 RMK A01 T02030174  RH  083%=      5-min Rain = 0
KHO1 261257Z 16017KT 20/17 A30 RMK A01 T02030174  RH  083%=      5-min Rain = 0
KHO1 261258Z 16016KT 20/17 A30 RMK A01 T02030174  RH  083%=      5-min Rain = 0
KHO1 261259Z 16013KT 20/17 A30 RMK A01 T02030174  RH  083%=      5-min Rain = 0
KHO1 261300Z 16012KT 20/17 A30 RMK A01 T02030174  RH  083%=      5-min Rain = 0
KHO1 261301Z 16012KT 20/17 A3001 RMK A01 T02040174  RH  083%=      5-min Rain = 0
KHO1 261302Z 16016KT 20/17 A3001 RMK A01 T02030174  RH  083%=      5-min Rain = 0
KHO1 261303Z 16017KT 20/17 A3001 RMK A01 T02030174  RH  083%=      5-min Rain = 0
KHO1 261304Z 17015G20KT 20/17 A3001 RMK A01 T02030173  RH  083%=      5-min Rain = 0
KHO1 261305Z 16014KT 20/17 A3001 RMK A01 T02030174  RH  083%=      5-min Rain = 0
KHO1 261306Z 16015KT 20/17 A30 RMK A01 T02030174  RH  083%=      5-min Rain = 0
KHO1 261307Z 16014KT 20/17 A30 RMK A01 T02030174  RH  083%=      5-min Rain = 0
KHO1 261308Z 16015KT 20/17 A3001 RMK A01 T02030174  RH  083%=      5-min Rain = 0
KHO1 261309Z 17016KT 20/17 A3001 RMK A01 T02030174  RH  083%=      5-min Rain = 0
KHO1 261310Z 16013KT 20/17 A30 RMK A01 T02030174  RH  083%=      5-min Rain = 0
KHO1 261311Z 16014KT 20/17 A3001 RMK A01 T02030174  RH  083%=      5-min Rain = 0
KHO1 261312Z 16013KT 20/17 A3001 RMK A01 T02030174  RH  083%=      5-min Rain = 0
KHO1 261313Z 16013KT 20/17 A3001 RMK A01 T02040174  RH  083%=      5-min Rain = 0
KHO1 261314Z 17013KT 20/17 A3001 RMK A01 T02040174  RH  083%=      5-min Rain = 0
KHO1 261315Z 17015KT 20/17 A3001 RMK A01 T02040174  RH  083%=      5-min Rain = 0
KHO1 261316Z 16015G23KT 20/17 A3001 RMK A01 T02040174  RH  083%=      5-min Rain = 0
KHO1 261317Z 16016KT 20/17 A3001 RMK A01 T02040173  RH  082%=      5-min Rain = 0
KHO1 261318Z 16017KT 20/17 A3001 RMK A01 T02040173  RH  083%=      5-min Rain = 0
KHO1 261319Z 17018KT 20/17 A3001 RMK A01 T02040173  RH  083%=      5-min Rain = 0
KHO1 261320Z 16015KT 20/17 A3001 RMK A01 T02040174  RH  083%=      5-min Rain = 0
KHO1 261321Z 16018KT 20/17 A3001 RMK A01 T02040173  RH  083%=      5-min Rain = 0
KHO1 261322Z 16017KT 20/17 A3001 RMK A01 T02040173  RH  082%=      5-min Rain = 0
KHO1 261323Z 16013KT 20/17 A3001 RMK A01 T02040174  RH  083%=      5-min Rain = 0
KHO1 261324Z 16013KT 21/17 A3001 RMK A01 T02050174  RH  082%=      5-min Rain = 0
KHO1 261325Z 17014KT 21/17 A3001 RMK A01 T02050174  RH  082%=      5-min Rain = 0
KHO1 261326Z 16012KT 21/17 A3001 RMK A01 T02060174  RH  082%=      5-min Rain = 0
KHO1 261327Z 16012KT 21/18 A3001 RMK A01 T02070175  RH  082%=      5-min Rain = 0
KHO1 261328Z 16014KT 21/17 A3001 RMK A01 T02070174  RH  081%=      5-min Rain = 0
KHO1 261329Z 16016KT 21/17 A3001 RMK A01 T02070174  RH  081%=      5-min Rain = 0
KHO1 261330Z 16015KT 21/17 A3001 RMK A01 T02060174  RH  081%=      5-min Rain = 0
KHO1 261331Z 16017KT 21/17 A3001 RMK A01 T02070174  RH  081%=      5-min Rain = 0
KHO1 261332Z 16014KT 21/17 A3001 RMK A01 T02070174  RH  081%=      5-min Rain = 0
KHO1 261333Z 16016KT 21/17 A3001 RMK A01 T02070173  RH  081%=      5-min Rain = 0
KHO1 261334Z 16015KT 21/17 A3001 RMK A01 T02070174  RH  081%=      5-min Rain = 0
KHO1 261335Z 16014KT 21/17 A3001 RMK A01 T02080174  RH  081%=      5-min Rain = 0
KHO1 261336Z 16015KT 21/17 A3001 RMK A01 T02080174  RH  081%=      5-min Rain = 0
KHO1 261337Z 16014KT 21/17 A3001 RMK A01 T02080174  RH  081%=      5-min Rain = 0
KHO1 261338Z 17015KT 21/17 A3001 RMK A01 T02090174  RH  080%=      5-min Rain = 0
KHO1 261339Z 17015G21KT 21/17 A3001 RMK A01 T02090174  RH  080%=      5-min Rain = 0
KHO1 261340Z 17018KT 21/17 A3002 RMK A01 T02080173  RH  080%=      5-min Rain = 0
KHO1 261341Z 16017KT 21/17 A3002 RMK A01 T02070173  RH  081%=      5-min Rain = 0
KHO1 261342Z 17015KT 21/17 A3001 RMK A01 T02070173  RH  081%=      5-min Rain = 0
KHO1 261343Z 17014KT 21/17 A3002 RMK A01 T02070173  RH  081%=      5-min Rain = 0
KHO1 261344Z 16013KT 21/17 A3002 RMK A01 T02080173  RH  081%=      5-min Rain = 0
KHO1 261345Z 17012KT 21/17 A3002 RMK A01 T02080174  RH  081%=      5-min Rain = 0
KHO1 261346Z 17015KT 21/17 A3002 RMK A01 T02090174  RH  080%=      5-min Rain = 0
KHO1 261347Z 18016KT 21/17 A3002 RMK A01 T02080172  RH  080%=      5-min Rain = 0
KHO1 261348Z 17016KT 21/17 A3002 RMK A01 T02070173  RH  080%=      5-min Rain = 0
KHO1 261349Z 17013KT 21/17 A3002 RMK A01 T02080173  RH  081%=      5-min Rain = 0
KHO1 261350Z 17014KT 21/17 A3002 RMK A01 T02080173  RH  080%=      5-min Rain = 0
KHO1 261351Z 17013KT 21/17 A3002 RMK A01 T02090173  RH  080%=      5-min Rain = 0
KHO1 261352Z 17013KT 21/17 A3002 RMK A01 T02090173  RH  080%=      5-min Rain = 0
KHO1 261353Z 16015KT 21/17 A3002 RMK A01 T02090173  RH  080%=      5-min Rain = 0
KHO1 261354Z 16014KT 21/17 A3002 RMK A01 T02090173  RH  080%=      5-min Rain = 0
KHO1 261355Z 16016KT 21/17 A3002 RMK A01 T02090173  RH  080%=      5-min Rain = 0
KHO1 261356Z 16017KT 21/17 A3002 RMK A01 T02080173  RH  080%=      5-min Rain = 0
KHO1 261357Z 16017KT 21/17 A3002 RMK A01 T02080172  RH  080%=      5-min Rain = 0
KHO1 261358Z 17016KT 21/17 A3002 RMK A01 T02080172  RH  080%=      5-min Rain = 0
KHO1 261359Z 17017KT 21/17 A3002 RMK A01 T02080173  RH  080%=      5-min Rain = 0
KHO1 261400Z 17014KT 21/17 A3002 RMK A01 T02070173  RH  081%=      5-min Rain = 0
KHO1 261401Z 17013KT 21/17 A3002 RMK A01 T02080173  RH  081%=      5-min Rain = 0
KHO1 261402Z 16014KT 21/17 A3002 RMK A01 T02080173  RH  080%=      5-min Rain = 0
KHO1 261403Z 17015KT 21/17 A3002 RMK A01 T02080173  RH  080%=      5-min Rain = 0
KHO1 261404Z 17014KT 21/17 A3002 RMK A01 T02080173  RH  080%=      5-min Rain = 0
KHO1 261405Z 17015KT 21/17 A3002 RMK A01 T02080173  RH  080%=      5-min Rain = 0
KHO1 261406Z 18015KT 21/17 A3002 RMK A01 T02090173  RH  080%=      5-min Rain = 0
KHO1 261407Z 17014KT 21/17 A3002 RMK A01 T02090172  RH  079%=      5-min Rain = 0
KHO1 261408Z 17012KT 21/17 A3002 RMK A01 T02100173  RH  079%=      5-min Rain = 0
KHO1 261409Z 16016KT 21/17 A3002 RMK A01 T02100173  RH  079%=      5-min Rain = 0
KHO1 261410Z 17015KT 21/17 A3002 RMK A01 T02100173  RH  079%=      5-min Rain = 0
KHO1 261411Z 17012KT 21/17 A3002 RMK A01 T02100173  RH  080%=      5-min Rain = 0
KHO1 261412Z 16012KT 21/17 A3002 RMK A01 T02110174  RH  079%=      5-min Rain = 0
KHO1 261413Z 16012KT 21/17 A3002 RMK A01 T02120174  RH  079%=      5-min Rain = 0
KHO1 261414Z 16016KT 21/17 A3002 RMK A01 T02120173  RH  078%=      5-min Rain = 0
KHO1 261415Z 17016KT 21/17 A3002 RMK A01 T02110172  RH  078%=      5-min Rain = 0
KHO1 261416Z 17014G20KT 21/17 A3002 RMK A01 T02120172  RH  078%=      5-min Rain = 0
KHO1 261417Z 16018KT 21/17 A3002 RMK A01 T02120172  RH  078%=      5-min Rain = 0
KHO1 261418Z 16016KT 21/17 A3002 RMK A01 T02100171  RH  078%=      5-min Rain = 0
KHO1 261419Z 16018KT 21/17 A3002 RMK A01 T02110171  RH  078%=      5-min Rain = 0
KHO1 261420Z 16014G20KT 21/17 A3002 RMK A01 T02110172  RH  078%=      5-min Rain = 0
KHO1 261421Z 17014KT 21/17 A3002 RMK A01 T02120172  RH  078%=      5-min Rain = 0
KHO1 261422Z 16017KT 21/17 A3002 RMK A01 T02120172  RH  078%=      5-min Rain = 0
KHO1 261423Z 17017KT 21/17 A3002 RMK A01 T02110172  RH  078%=      5-min Rain = 0
KHO1 261424Z 16019KT 21/17 A3002 RMK A01 T02110172  RH  078%=      5-min Rain = 0
KHO1 261425Z 16017KT 21/17 A3002 RMK A01 T02110172  RH  078%=      5-min Rain = 0
KHO1 261426Z 16016KT 21/17 A3002 RMK A01 T02110172  RH  078%=      5-min Rain = 0
KHO1 261427Z 16014KT 21/17 A3002 RMK A01 T02110172  RH  078%=      5-min Rain = 0
KHO1 261428Z 17015KT 21/17 A3002 RMK A01 T02120172  RH  078%=      5-min Rain = 0
KHO1 261429Z 16015KT 21/17 A3002 RMK A01 T02120172  RH  078%=      5-min Rain = 0
KHO1 261430Z 16017KT 21/17 A3002 RMK A01 T02120172  RH  078%=      5-min Rain = 0
KHO1 261431Z 17018KT 21/17 A3002 RMK A01 T02120172  RH  078%=      5-min Rain = 0
KHO1 261432Z 16018KT 21/17 A3002 RMK A01 T02120171  RH  077%=      5-min Rain = 0
KHO1 261433Z 17016KT 21/17 A3003 RMK A01 T02110172  RH  078%=      5-min Rain = 0
KHO1 261434Z 17015KT 21/17 A3003 RMK A01 T02120172  RH  078%=      5-min Rain = 0
KHO1 261435Z 17011KT 21/17 A3003 RMK A01 T02120173  RH  078%=      5-min Rain = 0
KHO1 261436Z 17011KT 21/17 A3002 RMK A01 T02130173  RH  078%=      5-min Rain = 0
KHO1 261437Z 16015KT 21/17 A3002 RMK A01 T02140172  RH  077%=      5-min Rain = 0
KHO1 261438Z 16015KT 21/17 A3002 RMK A01 T02140173  RH  077%=      5-min Rain = 0
KHO1 261439Z 17014KT 22/17 A3002 RMK A01 T02150173  RH  077%=      5-min Rain = 0
KHO1 261440Z 17015KT 22/17 A3003 RMK A01 T02150172  RH  076%=      5-min Rain = 0
KHO1 261441Z 17017G22KT 22/17 A3003 RMK A01 T02150171  RH  076%=      5-min Rain = 0
KHO1 261442Z 17018KT 21/17 A3003 RMK A01 T02140171  RH  076%=      5-min Rain = 0
KHO1 261443Z 17016KT 21/17 A3003 RMK A01 T02140172  RH  077%=      5-min Rain = 0
KHO1 261444Z 17016KT 22/17 A3003 RMK A01 T02150172  RH  077%=      5-min Rain = 0
KHO1 261445Z 17014G19KT 22/17 A3003 RMK A01 T02150172  RH  077%=      5-min Rain = 0
KHO1 261446Z 17017KT 21/17 A3003 RMK A01 T02140171  RH  076%=      5-min Rain = 0
KHO1 261447Z 17015KT 21/17 A3003 RMK A01 T02140172  RH  077%=      5-min Rain = 0
KHO1 261448Z 17015KT 22/17 A3003 RMK A01 T02150173  RH  077%=      5-min Rain = 0
KHO1 261449Z 17014KT 22/17 A3003 RMK A01 T02160173  RH  076%=      5-min Rain = 0
KHO1 261450Z 17015KT 22/17 A3003 RMK A01 T02160173  RH  077%=      5-min Rain = 0
KHO1 261451Z 17014KT 22/17 A3003 RMK A01 T02160173  RH  076%=      5-min Rain = 0
KHO1 261452Z 17013KT 22/17 A3003 RMK A01 T02160173  RH  076%=      5-min Rain = 0
KHO1 261453Z 17012G17KT 22/17 A3003 RMK A01 T02170173  RH  076%=      5-min Rain = 0
KHO1 261454Z 17014KT 22/17 A3003 RMK A01 T02170173  RH  076%=      5-min Rain = 0
KHO1 261455Z 17012KT 22/17 A3003 RMK A01 T02170173  RH  076%=      5-min Rain = 0
KHO1 261456Z 16016KT 22/17 A3003 RMK A01 T02180173  RH  076%=      5-min Rain = 0
KHO1 261457Z 17015KT 22/17 A3003 RMK A01 T02170172  RH  075%=      5-min Rain = 0
KHO1 261458Z 17016KT 22/17 A3003 RMK A01 T02170171  RH  075%=      5-min Rain = 0
KHO1 261459Z 17016KT 22/17 A3003 RMK A01 T02160171  RH  076%=      5-min Rain = 0
KHO1 261500Z 17016KT 22/17 A3003 RMK A01 T02160172  RH  076%=      5-min Rain = 0
KHO1 261501Z 17014KT 22/17 A3003 RMK A01 T02170172  RH  075%=      5-min Rain = 0
KHO1 261502Z 17017KT 22/17 A3003 RMK A01 T02170171  RH  075%=      5-min Rain = 0
KHO1 261503Z 17015KT 22/17 A3003 RMK A01 T02170171  RH  075%=      5-min Rain = 0
KHO1 261504Z 17016KT 22/17 A3003 RMK A01 T02170171  RH  075%=      5-min Rain = 0
KHO1 261505Z 17013KT 22/17 A3003 RMK A01 T02170172  RH  076%=      5-min Rain = 0
KHO1 261506Z 17015KT 22/17 A3003 RMK A01 T02180172  RH  075%=      5-min Rain = 0
KHO1 261507Z 17016KT 22/17 A3003 RMK A01 T02170171  RH  075%=      5-min Rain = 0
KHO1 261508Z 17015KT 22/17 A3003 RMK A01 T02170172  RH  075%=      5-min Rain = 0
KHO1 261509Z 17016KT 22/17 A3003 RMK A01 T02170172  RH  075%=      5-min Rain = 0
KHO1 261510Z 17013KT 22/17 A3003 RMK A01 T02170173  RH  076%=      5-min Rain = 0
KHO1 261511Z 17014KT 22/17 A3003 RMK A01 T02180173  RH  075%=      5-min Rain = 0
KHO1 261512Z 17015KT 22/17 A3003 RMK A01 T02180172  RH  075%=      5-min Rain = 0
KHO1 261513Z 17014G19KT 22/17 A3003 RMK A01 T02180172  RH  075%=      5-min Rain = 0
KHO1 261514Z 17018KT 22/17 A3003 RMK A01 T02180171  RH  075%=      5-min Rain = 0
KHO1 261515Z 17016KT 22/17 A3003 RMK A01 T02180171  RH  075%=      5-min Rain = 0
KHO1 261516Z 17015KT 22/17 A3003 RMK A01 T02180171  RH  075%=      5-min Rain = 0
KHO1 261517Z 17016KT 22/17 A3003 RMK A01 T02190171  RH  074%=      5-min Rain = 0
KHO1 261518Z 17014KT 22/17 A3003 RMK A01 T02180172  RH  075%=      5-min Rain = 0
KHO1 261519Z 17015KT 22/17 A3003 RMK A01 T02190172  RH  075%=      5-min Rain = 0
KHO1 261520Z 17016KT 22/17 A3003 RMK A01 T02190171  RH  074%=      5-min Rain = 0
KHO1 261521Z 18015KT 22/17 A3003 RMK A01 T02180172  RH  075%=      5-min Rain = 0
KHO1 261522Z 18014KT 22/17 A3003 RMK A01 T02190172  RH  075%=      5-min Rain = 0
KHO1 261523Z 17012G17KT 22/17 A3003 RMK A01 T02200173  RH  075%=      5-min Rain = 0
KHO1 261524Z 17013KT 22/17 A3003 RMK A01 T02210173  RH  074%=      5-min Rain = 0
KHO1 261525Z 16014KT 22/17 A3003 RMK A01 T02210173  RH  074%=      5-min Rain = 0
KHO1 261526Z 16013KT 22/17 A3003 RMK A01 T02210172  RH  074%=      5-min Rain = 0
KHO1 261527Z 17012KT 22/17 A3003 RMK A01 T02210172  RH  074%=      5-min Rain = 0
KHO1 261528Z 17015KT 22/17 A3003 RMK A01 T02220172  RH  073%=      5-min Rain = 0
KHO1 261529Z 17016KT 22/17 A3003 RMK A01 T02200171  RH  073%=      5-min Rain = 0
KHO1 261530Z 18015KT 22/17 A3003 RMK A01 T02200171  RH  074%=      5-min Rain = 0
KHO1 261531Z 18016KT 22/17 A3003 RMK A01 T02200172  RH  074%=      5-min Rain = 0
KHO1 261532Z 17015KT 22/17 A3003 RMK A01 T02200172  RH  074%=      5-min Rain = 0
KHO1 261533Z 17013KT 22/17 A3003 RMK A01 T02210172  RH  074%=      5-min Rain = 0
KHO1 261534Z 18015KT 22/17 A3003 RMK A01 T02210171  RH  073%=      5-min Rain = 0
KHO1 261535Z 17013KT 22/17 A3003 RMK A01 T02210172  RH  074%=      5-min Rain = 0
KHO1 261536Z 18012KT 22/17 A3003 RMK A01 T02220172  RH  073%=      5-min Rain = 0
KHO1 261537Z 17013KT 22/17 A3003 RMK A01 T02230172  RH  073%=      5-min Rain = 0
KHO1 261538Z 17013KT 22/17 A3003 RMK A01 T02220171  RH  073%=      5-min Rain = 0
KHO1 261539Z 17011KT 22/17 A3003 RMK A01 T02220171  RH  073%=      5-min Rain = 0
KHO1 261540Z 17015KT 22/17 A3003 RMK A01 T02230171  RH  073%=      5-min Rain = 0
KHO1 261541Z 17013KT 22/17 A3003 RMK A01 T02220171  RH  073%=      5-min Rain = 0
KHO1 261542Z 16015KT 22/17 A3003 RMK A01 T02220171  RH  073%=      5-min Rain = 0
KHO1 261543Z 16015KT 22/17 A3003 RMK A01 T02210171  RH  074%=      5-min Rain = 0
KHO1 261544Z 17013KT 22/17 A3003 RMK A01 T02200172  RH  074%=      5-min Rain = 0
KHO1 261545Z 16012KT 22/17 A3003 RMK A01 T02210172  RH  074%=      5-min Rain = 0
KHO1 261546Z 17013KT 22/17 A3003 RMK A01 T02220172  RH  073%=      5-min Rain = 0
KHO1 261547Z 17012KT 22/17 A3003 RMK A01 T02220172  RH  073%=      5-min Rain = 0
KHO1 261548Z 18012KT 22/17 A3003 RMK A01 T02230173  RH  073%=      5-min Rain = 0
KHO1 261549Z 18013KT 22/17 A3003 RMK A01 T02230171  RH  073%=      5-min Rain = 0
KHO1 261550Z 18015KT 22/17 A3003 RMK A01 T02220172  RH  073%=      5-min Rain = 0
KHO1 261551Z 17016KT 22/17 A3003 RMK A01 T02210171  RH  073%=      5-min Rain = 0
KHO1 261552Z 16016KT 22/17 A3003 RMK A01 T02210170  RH  073%=      5-min Rain = 0
KHO1 261553Z 17015KT 22/17 A3003 RMK A01 T02210170  RH  073%=      5-min Rain = 0
KHO1 261554Z 17014KT 22/17 A3003 RMK A01 T02210171  RH  073%=      5-min Rain = 0
KHO1 261555Z 16015KT 22/17 A3003 RMK A01 T02210171  RH  073%=      5-min Rain = 0
KHO1 261556Z 16013KT 22/17 A3003 RMK A01 T02210171  RH  073%=      5-min Rain = 0
KHO1 261557Z 16014KT 22/17 A3003 RMK A01 T02220171  RH  073%=      5-min Rain = 0
KHO1 261558Z 16013KT 22/17 A3002 RMK A01 T02220171  RH  073%=      5-min Rain = 0
KHO1 261559Z 16013KT 22/17 A3003 RMK A01 T02230171  RH  073%=      5-min Rain = 0
KHO1 261600Z 17011KT 22/17 A3003 RMK A01 T02230171  RH  072%=      5-min Rain = 0
KHO1 261601Z 18011KT 23/17 A3003 RMK A01 T02250172  RH  072%=      5-min Rain = 0
KHO1 261602Z 18012KT 23/17 A3003 RMK A01 T02260172  RH  071%=      5-min Rain = 0
KHO1 261603Z 17014KT 23/17 A3003 RMK A01 T02250171  RH  071%=      5-min Rain = 0
KHO1 261604Z 18012KT 23/17 A3003 RMK A01 T02260172  RH  072%=      5-min Rain = 0
KHO1 261605Z 18013KT 23/17 A3003 RMK A01 T02260172  RH  071%=      5-min Rain = 0
KHO1 261606Z 17015KT 23/17 A3003 RMK A01 T02260172  RH  071%=      5-min Rain = 0
KHO1 261607Z 16016KT 23/17 A3003 RMK A01 T02260171  RH  071%=      5-min Rain = 0
KHO1 261608Z 16016KT 23/17 A3003 RMK A01 T02260172  RH  071%=      5-min Rain = 0
KHO1 261609Z 16016KT 23/17 A3003 RMK A01 T02250172  RH  072%=      5-min Rain = 0
KHO1 261610Z 17015KT 23/17 A3003 RMK A01 T02250172  RH  072%=      5-min Rain = 0
KHO1 261611Z 17016KT 22/17 A3003 RMK A01 T02240172  RH  072%=      5-min Rain = 0
KHO1 261612Z 17015KT 22/17 A3003 RMK A01 T02240171  RH  072%=      5-min Rain = 0
KHO1 261613Z 16014KT 22/17 A3003 RMK A01 T02240171  RH  072%=      5-min Rain = 0
KHO1 261614Z 16015KT 22/17 A3003 RMK A01 T02240171  RH  072%=      5-min Rain = 0
KHO1 261615Z 16016KT 22/17 A3003 RMK A01 T02240171  RH  072%=      5-min Rain = 0
KHO1 261616Z 16013KT 22/17 A3003 RMK A01 T02240172  RH  072%=      5-min Rain = 0
KHO1 261617Z 18012KT 23/17 A3003 RMK A01 T02270173  RH  072%=      5-min Rain = 0
KHO1 261618Z 18013KT 23/17 A3003 RMK A01 T02270171  RH  070%=      5-min Rain = 0
KHO1 261619Z 18013KT 23/17 A3003 RMK A01 T02260172  RH  071%=      5-min Rain = 0
KHO1 261620Z 18013KT 23/17 A3003 RMK A01 T02270172  RH  071%=      5-min Rain = 0
KHO1 261621Z 18015KT 23/17 A3003 RMK A01 T02270172  RH  071%=      5-min Rain = 0
KHO1 261622Z 18014KT 23/17 A3003 RMK A01 T02270172  RH  071%=      5-min Rain = 0
KHO1 261623Z 18011KT 23/17 A3003 RMK A01 T02280173  RH  071%=      5-min Rain = 0
KHO1 261624Z 17015KT 23/17 A3003 RMK A01 T02300172  RH  070%=      5-min Rain = 0
KHO1 261625Z 17015KT 23/17 A3003 RMK A01 T02290171  RH  070%=      5-min Rain = 0
KHO1 261626Z 17015KT 23/17 A3002 RMK A01 T02290172  RH  070%=      5-min Rain = 0
KHO1 261627Z 17014KT 23/17 A3002 RMK A01 T02290171  RH  070%=      5-min Rain = 0
KHO1 261628Z 18012KT 23/17 A3002 RMK A01 T02300172  RH  070%=      5-min Rain = 0
KHO1 261629Z 17012KT 23/17 A3002 RMK A01 T02310173  RH  070%=      5-min Rain = 0
KHO1 261630Z 16013KT 23/17 A3002 RMK A01 T02310172  RH  070%=      5-min Rain = 0
KHO1 261631Z 17015KT 23/17 A3002 RMK A01 T02310172  RH  070%=      5-min Rain = 0
KHO1 261632Z 16016KT 23/17 A3002 RMK A01 T02300172  RH  070%=      5-min Rain = 0
KHO1 261633Z 16015KT 23/17 A3002 RMK A01 T02300172  RH  070%=      5-min Rain = 0
KHO1 261634Z 16013KT 23/17 A3002 RMK A01 T02320173  RH  070%=      5-min Rain = 0
KHO1 261635Z 17013KT 24/17 A3002 RMK A01 T02350174  RH  069%=      5-min Rain = 0
KHO1 261636Z 18012KT 24/17 A3002 RMK A01 T02370174  RH  068%=      5-min Rain = 0
KHO1 261637Z 17012KT 24/17 A3002 RMK A01 T02380173  RH  067%=      5-min Rain = 0
KHO1 261638Z 16013KT 24/17 A3002 RMK A01 T02360172  RH  067%=      5-min Rain = 0
KHO1 261639Z 16015KT 24/17 A3002 RMK A01 T02350172  RH  067%=      5-min Rain = 0
KHO1 261640Z 16014KT 24/17 A3002 RMK A01 T02350173  RH  068%=      5-min Rain = 0
KHO1 261641Z 16011KT 24/17 A3002 RMK A01 T02350174  RH  069%=      5-min Rain = 0
KHO1 261642Z 16013KT 24/17 A3002 RMK A01 T02360173  RH  068%=      5-min Rain = 0
KHO1 261643Z 16011KT 24/17 A3002 RMK A01 T02360173  RH  068%=      5-min Rain = 0
KHO1 261644Z 17013KT 24/17 A3002 RMK A01 T02360173  RH  068%=      5-min Rain = 0
KHO1 261645Z 18011KT 24/17 A3002 RMK A01 T02360173  RH  068%=      5-min Rain = 0
KHO1 261646Z 17014KT 24/17 A3002 RMK A01 T02370172  RH  067%=      5-min Rain = 0
KHO1 261647Z 17015KT 24/17 A3003 RMK A01 T02350172  RH  068%=      5-min Rain = 0
KHO1 261648Z 17013KT 24/17 A3003 RMK A01 T02350173  RH  068%=      5-min Rain = 0
KHO1 261649Z 17014KT 24/17 A3003 RMK A01 T02350172  RH  068%=      5-min Rain = 0
KHO1 261650Z 18012KT 23/17 A3003 RMK A01 T02340172  RH  068%=      5-min Rain = 0
KHO1 261651Z 17015KT 23/17 A3003 RMK A01 T02340172  RH  068%=      5-min Rain = 0
KHO1 261652Z 18016KT 23/17 A3003 RMK A01 T02340171  RH  068%=      5-min Rain = 0
KHO1 261653Z 18014KT 23/17 A3003 RMK A01 T02320171  RH  069%=      5-min Rain = 0
KHO1 261654Z 18013KT 23/17 A3003 RMK A01 T02320172  RH  069%=      5-min Rain = 0
KHO1 261655Z 18014KT 23/17 A3003 RMK A01 T02320172  RH  069%=      5-min Rain = 0
KHO1 261656Z 18013KT 23/17 A3003 RMK A01 T02320171  RH  069%=      5-min Rain = 0
KHO1 261657Z 18013KT 23/17 A3003 RMK A01 T02320171  RH  068%=      5-min Rain = 0
KHO1 261658Z 18013KT 23/17 A3003 RMK A01 T02320171  RH  068%=      5-min Rain = 0
KHO1 261659Z 18012KT 23/17 A3003 RMK A01 T02320171  RH  069%=      5-min Rain = 0
KHO1 261700Z 18013KT 23/17 A3003 RMK A01 T02320171  RH  069%=      5-min Rain = 0
KHO1 261701Z 17015KT 23/17 A3003 RMK A01 T02310172  RH  069%=      5-min Rain = 0
KHO1 261702Z 17015KT 23/17 A3003 RMK A01 T02300172  RH  070%=      5-min Rain = 0
KHO1 261703Z 17015KT 23/17 A3003 RMK A01 T02290172  RH  070%=      5-min Rain = 0
KHO1 261704Z 18012KT 23/17 A3004 RMK A01 T02290172  RH  070%=      5-min Rain = 0
KHO1 261705Z 17014KT 23/17 A3004 RMK A01 T02300173  RH  070%=      5-min Rain = 0
KHO1 261706Z 19013KT 23/17 A3004 RMK A01 T02320173  RH  070%=      5-min Rain = 0
KHO1 261707Z 18015KT 23/17 A3004 RMK A01 T02320172  RH  069%=      5-min Rain = 0
KHO1 261708Z 18014KT 23/17 A3004 RMK A01 T02310172  RH  069%=      5-min Rain = 0
KHO1 261709Z 18012KT 23/17 A3004 RMK A01 T02310173  RH  070%=      5-min Rain = 0
KHO1 261710Z 18013KT 23/17 A3004 RMK A01 T02320173  RH  069%=      5-min Rain = 0
KHO1 261711Z 18012KT 23/17 A3004 RMK A01 T02320173  RH  069%=      5-min Rain = 0
KHO1 261712Z 18011KT 23/17 A3004 RMK A01 T02320173  RH  069%=      5-min Rain = 0
KHO1 261713Z 18013KT 23/17 A3004 RMK A01 T02320173  RH  069%=      5-min Rain = 0
KHO1 261714Z 18011KT 23/17 A3004 RMK A01 T02320173  RH  069%=      5-min Rain = 0
KHO1 261715Z 19012KT 23/17 A3003 RMK A01 T02320173  RH  069%=      5-min Rain = 0
KHO1 261716Z 18012G17KT 23/17 A3003 RMK A01 T02330173  RH  069%=      5-min Rain = 0
KHO1 261717Z 18011KT 23/17 A3003 RMK A01 T02320172  RH  069%=      5-min Rain = 0
KHO1 261718Z 18011KT 23/17 A3003 RMK A01 T02310172  RH  069%=      5-min Rain = 0
KHO1 261719Z 16011KT 23/17 A3003 RMK A01 T02310173  RH  069%=      5-min Rain = 0
KHO1 261720Z 16012KT 23/17 A3003 RMK A01 T02310172  RH  069%=      5-min Rain = 0
KHO1 261721Z 17011KT 23/17 A3003 RMK A01 T02310172  RH  070%=      5-min Rain = 0
KHO1 261722Z 18011KT 23/17 A3003 RMK A01 T02310172  RH  069%=      5-min Rain = 0
KHO1 261723Z 19011KT 23/17 A3003 RMK A01 T02300172  RH  070%=      5-min Rain = 0
KHO1 261724Z 19011KT 23/17 A3003 RMK A01 T02300172  RH  070%=      5-min Rain = 0
KHO1 261725Z 19010KT 23/17 A3003 RMK A01 T02290173  RH  070%=      5-min Rain = 0
KHO1 261726Z 19012KT 23/17 A3004 RMK A01 T02300174  RH  071%=      5-min Rain = 0
KHO1 261727Z 19010KT 23/18 A3003 RMK A01 T02290176  RH  072%=      5-min Rain = 0
KHO1 261728Z 19010KT 23/18 A3003 RMK A01 T02280176  RH  073%=      5-min Rain = 0
KHO1 261729Z 16006KT 23/18 A3002 RMK A01 T02270177  RH  073%=      5-min Rain = 0
KHO1 261730Z 16005KT 23/18 A3001 RMK A01 T02270178  RH  074%=      5-min Rain = 0
KHO1 261731Z 15004KT 23/18 A30 RMK A01 T02270176  RH  073%=      5-min Rain = 0
KHO1 261732Z 14002KT 23/17 A30 RMK A01 T02260174  RH  072%=      5-min Rain = 0
KHO1 261733Z 13001KT 23/18 A2999 RMK A01 T02260175  RH  073%=      5-min Rain = 0
KHO1 261734Z 16001KT 23/18 A2999 RMK A01 T02270175  RH  072%=      5-min Rain = 0
KHO1 261735Z 20002KT 23/17 A30 RMK A01 T02270174  RH  072%=      5-min Rain = 0
KHO1 261736Z 16004KT 23/18 A30 RMK A01 T02270177  RH  073%=      5-min Rain = 0
KHO1 261737Z 17008KT 23/18 A3001 RMK A01 T02270177  RH  073%=      5-min Rain = 0
KHO1 261738Z 18010KT 23/18 A3002 RMK A01 T02280178  RH  074%=      5-min Rain = 0
KHO1 261739Z 18011KT 23/18 A3003 RMK A01 T02280178  RH  073%=      5-min Rain = 0
KHO1 261740Z 18013KT 23/18 A3003 RMK A01 T02280178  RH  073%=      5-min Rain = 0
KHO1 261741Z 17011KT 23/18 A3003 RMK A01 T02280178  RH  074%=      5-min Rain = 0
KHO1 261742Z 17013KT 23/18 A3004 RMK A01 T02280177  RH  073%=      5-min Rain = 0
KHO1 261743Z 17013KT 23/18 A3004 RMK A01 T02280177  RH  073%=      5-min Rain = 0
KHO1 261744Z 18016KT 23/18 A3005 RMK A01 T02270176  RH  073%=      5-min Rain = 0
KHO1 261745Z 18017KT 23/18 A3006 RMK A01 T02270176  RH  073%=      5-min Rain = 0
KHO1 261746Z 18017G22KT 23/18 A3006 RMK A01 T02270176  RH  073%=      5-min Rain = 0
KHO1 261747Z 18020KT 23/18 A3007 RMK A01 T02270176  RH  073%=      5-min Rain = 0
KHO1 261748Z 17018KT 23/18 A3007 RMK A01 T02280176  RH  073%=      5-min Rain = 0
KHO1 261749Z 17015KT 23/18 A3007 RMK A01 T02280176  RH  073%=      5-min Rain = 0
KHO1 261750Z 17013KT 23/18 A3006 RMK A01 T02280176  RH  073%=      5-min Rain = 0
KHO1 261751Z 17014G19KT 23/18 A3006 RMK A01 T02280178  RH  073%=      5-min Rain = 0
KHO1 261752Z 16015KT 23/18 A3005 RMK A01 T02260179  RH  075%=      5-min Rain = 0.01
KHO1 261753Z 16015KT 22/18 A3005 RMK A01 T02230180  RH  077%=      5-min Rain = 0.01
KHO1 261754Z 16014G19KT 22/18 A3005 RMK A01 T02210182  RH  078%=      5-min Rain = 0.01
KHO1 261755Z 16017KT 22/18 A3005 RMK A01 T02200181  RH  079%=      5-min Rain = 0
KHO1 261756Z 15013KT 22/18 A3004 RMK A01 T02190183  RH  080%=      5-min Rain = 0
KHO1 261757Z 15015KT 22/18 A3004 RMK A01 T02190182  RH  079%=      5-min Rain = 0
KHO1 261758Z 16014KT 22/18 A3004 RMK A01 T02200182  RH  079%=      5-min Rain = 0
KHO1 261759Z 15012KT 22/18 A3004 RMK A01 T02200184  RH  080%=      5-min Rain = 0
KHO1 261800Z 16011KT 22/19 A3004 RMK A01 T02190185  RH  081%=      5-min Rain = 0
KHO1 261801Z 16013G18KT 22/19 A3004 RMK A01 T02190186  RH  081%=      5-min Rain = 0
KHO1 261802Z 16015KT 22/18 A3004 RMK A01 T02190183  RH  080%=      5-min Rain = 0
KHO1 261803Z 15013KT 22/18 A3004 RMK A01 T02190184  RH  080%=      5-min Rain = 0
KHO1 261804Z 16010KT 22/19 A3004 RMK A01 T02190186  RH  081%=      5-min Rain = 0
KHO1 261805Z 16012KT 22/19 A3004 RMK A01 T02190185  RH  081%=      5-min Rain = 0
KHO1 261806Z 16009KT 22/19 A3004 RMK A01 T02190185  RH  081%=      5-min Rain = 0
KHO1 261807Z 16009KT 22/19 A3004 RMK A01 T02190185  RH  081%=      5-min Rain = 0
KHO1 261808Z 16008KT 22/19 A3004 RMK A01 T02200185  RH  081%=      5-min Rain = 0
KHO1 261809Z 16007KT 22/19 A3004 RMK A01 T02200187  RH  081%=      5-min Rain = 0
KHO1 261810Z 17006KT 22/19 A3003 RMK A01 T02200188  RH  082%=      5-min Rain = 0
KHO1 261811Z 16007KT 22/19 A3003 RMK A01 T02200187  RH  081%=      5-min Rain = 0
KHO1 261812Z 16005KT 22/19 A3004 RMK A01 T02210190  RH  083%=      5-min Rain = 0
KHO1 261813Z 16007KT 22/19 A3004 RMK A01 T02210188  RH  082%=      5-min Rain = 0
KHO1 261814Z 17010KT 22/19 A3004 RMK A01 T02210186  RH  081%=      5-min Rain = 0
KHO1 261815Z 16011KT 22/19 A3004 RMK A01 T02210185  RH  080%=      5-min Rain = 0
KHO1 261816Z 16009KT 22/19 A3003 RMK A01 T02220186  RH  080%=      5-min Rain = 0
KHO1 261817Z 17008KT 22/19 A3003 RMK A01 T02220188  RH  081%=      5-min Rain = 0
KHO1 261818Z 17008KT 22/19 A3003 RMK A01 T02220186  RH  080%=      5-min Rain = 0
KHO1 261819Z 16008KT 22/19 A3003 RMK A01 T02220187  RH  080%=      5-min Rain = 0
KHO1 261820Z 16008KT 22/19 A3003 RMK A01 T02230188  RH  081%=      5-min Rain = 0
KHO1 261821Z 17007KT 22/19 A3003 RMK A01 T02220187  RH  080%=      5-min Rain = 0
KHO1 261822Z 18006KT 22/19 A3003 RMK A01 T02230190  RH  082%=      5-min Rain = 0
KHO1 261823Z 18005KT 22/19 A3003 RMK A01 T02240191  RH  082%=      5-min Rain = 0
KHO1 261824Z 18006KT 22/19 A3003 RMK A01 T02240191  RH  081%=      5-min Rain = 0
KHO1 261825Z 18005KT 22/19 A3003 RMK A01 T02240187  RH  080%=      5-min Rain = 0
KHO1 261826Z 19005KT 23/19 A3003 RMK A01 T02250191  RH  081%=      5-min Rain = 0
KHO1 261827Z 18007KT 23/19 A3002 RMK A01 T02250188  RH  079%=      5-min Rain = 0
KHO1 261828Z 19006KT 23/19 A3003 RMK A01 T02250187  RH  079%=      5-min Rain = 0
KHO1 261829Z 18006KT 23/19 A3003 RMK A01 T02260191  RH  080%=      5-min Rain = 0
KHO1 261830Z 18007KT 23/19 A3003 RMK A01 T02260189  RH  079%=      5-min Rain = 0
KHO1 261831Z 18007KT 23/19 A3003 RMK A01 T02270191  RH  080%=      5-min Rain = 0
KHO1 261832Z 18010KT 23/19 A3003 RMK A01 T02270188  RH  079%=      5-min Rain = 0
KHO1 261833Z 18010KT 23/19 A3003 RMK A01 T02270188  RH  078%=      5-min Rain = 0
KHO1 261834Z 18011KT 23/19 A3004 RMK A01 T02280189  RH  079%=      5-min Rain = 0
KHO1 261835Z 17013KT 23/19 A3004 RMK A01 T02280187  RH  078%=      5-min Rain = 0
KHO1 261836Z 18013KT 23/19 A3004 RMK A01 T02280188  RH  078%=      5-min Rain = 0
KHO1 261837Z 18011KT 23/19 A3004 RMK A01 T02290189  RH  078%=      5-min Rain = 0
KHO1 261838Z 17013KT 23/19 A3004 RMK A01 T02290188  RH  077%=      5-min Rain = 0
KHO1 261839Z 17013KT 23/19 A3004 RMK A01 T02290186  RH  077%=      5-min Rain = 0
KHO1 261840Z 16012KT 23/19 A3004 RMK A01 T02290189  RH  078%=      5-min Rain = 0
KHO1 261841Z 15010KT 23/19 A3003 RMK A01 T02300192  RH  079%=      5-min Rain = 0
KHO1 261842Z 15010KT 23/19 A3003 RMK A01 T02300193  RH  079%=      5-min Rain = 0
KHO1 261843Z 15012KT 23/19 A3002 RMK A01 T02300189  RH  078%=      5-min Rain = 0
KHO1 261844Z 15011KT 23/19 A3002 RMK A01 T02300190  RH  078%=      5-min Rain = 0
KHO1 261845Z 15012KT 23/19 A3002 RMK A01 T02300190  RH  078%=      5-min Rain = 0
KHO1 261846Z 15012KT 23/19 A3002 RMK A01 T02300187  RH  077%=      5-min Rain = 0
KHO1 261847Z 15009KT 23/19 A3002 RMK A01 T02290189  RH  078%=      5-min Rain = 0
KHO1 261848Z 15011KT 23/19 A3002 RMK A01 T02300190  RH  078%=      5-min Rain = 0
KHO1 261849Z 16013KT 23/19 A3002 RMK A01 T02290186  RH  077%=      5-min Rain = 0
KHO1 261850Z 16012KT 23/19 A3002 RMK A01 T02280186  RH  077%=      5-min Rain = 0
KHO1 261851Z 16013KT 23/19 A3003 RMK A01 T02280186  RH  077%=      5-min Rain = 0
KHO1 261852Z 17013KT 23/19 A3003 RMK A01 T02270186  RH  077%=      5-min Rain = 0
KHO1 261853Z 17014KT 23/19 A3003 RMK A01 T02270185  RH  077%=      5-min Rain = 0
KHO1 261854Z 17011KT 23/19 A3003 RMK A01 T02270187  RH  078%=      5-min Rain = 0
KHO1 261855Z 16012KT 23/19 A3003 RMK A01 T02270186  RH  078%=      5-min Rain = 0
KHO1 261856Z 17009KT 23/19 A3003 RMK A01 T02270188  RH  079%=      5-min Rain = 0
KHO1 261857Z 18012KT 23/19 A3003 RMK A01 T02270186  RH  078%=      5-min Rain = 0
KHO1 261858Z 17010KT 23/19 A3003 RMK A01 T02270186  RH  078%=      5-min Rain = 0
KHO1 261859Z 17011KT 23/18 A3002 RMK A01 T02260184  RH  077%=      5-min Rain = 0
KHO1 261900Z 16011KT 23/18 A3002 RMK A01 T02260184  RH  077%=      5-min Rain = 0
KHO1 261901Z 16010KT 23/19 A3002 RMK A01 T02260185  RH  078%=      5-min Rain = 0
KHO1 261902Z 16009KT 23/19 A3002 RMK A01 T02260188  RH  079%=      5-min Rain = 0
KHO1 261903Z 16011KT 23/19 A3002 RMK A01 T02270187  RH  078%=      5-min Rain = 0
KHO1 261904Z 16013KT 23/19 A3002 RMK A01 T02270186  RH  078%=      5-min Rain = 0
KHO1 261905Z 16014KT 23/19 A3003 RMK A01 T02270186  RH  078%=      5-min Rain = 0
KHO1 261906Z 16015KT 23/19 A3003 RMK A01 T02270186  RH  078%=      5-min Rain = 0
KHO1 261907Z 15013KT 23/19 A3003 RMK A01 T02280187  RH  078%=      5-min Rain = 0
KHO1 261908Z 16013KT 23/19 A3002 RMK A01 T02280186  RH  077%=      5-min Rain = 0
KHO1 261909Z 16013KT 23/19 A3002 RMK A01 T02280185  RH  077%=      5-min Rain = 0
KHO1 261910Z 16012KT 23/18 A3002 RMK A01 T02280184  RH  076%=      5-min Rain = 0
KHO1 261911Z 16012KT 23/18 A3002 RMK A01 T02280184  RH  076%=      5-min Rain = 0
KHO1 261912Z 15012KT 23/18 A3002 RMK A01 T02280184  RH  076%=      5-min Rain = 0
KHO1 261913Z 16010KT 23/18 A3002 RMK A01 T02290184  RH  076%=      5-min Rain = 0
KHO1 261914Z 16012KT 23/18 A3002 RMK A01 T02280181  RH  075%=      5-min Rain = 0
KHO1 261915Z 17013KT 23/18 A3002 RMK A01 T02280182  RH  075%=      5-min Rain = 0
KHO1 261916Z 17012KT 23/18 A3002 RMK A01 T02290184  RH  076%=      5-min Rain = 0
KHO1 261917Z 17015KT 23/18 A3002 RMK A01 T02290184  RH  076%=      5-min Rain = 0
KHO1 261918Z 16015KT 23/18 A3002 RMK A01 T02280183  RH  075%=      5-min Rain = 0
KHO1 261919Z 16016KT 23/18 A3002 RMK A01 T02280183  RH  076%=      5-min Rain = 0
KHO1 261920Z 16014KT 23/18 A3002 RMK A01 T02280183  RH  076%=      5-min Rain = 0
KHO1 261921Z 16014KT 23/18 A3002 RMK A01 T02280184  RH  076%=      5-min Rain = 0
KHO1 261922Z 16015KT 23/18 A3002 RMK A01 T02270183  RH  076%=      5-min Rain = 0
KHO1 261923Z 16013KT 23/18 A3002 RMK A01 T02270184  RH  076%=      5-min Rain = 0
KHO1 261924Z 16011KT 23/18 A3002 RMK A01 T02280184  RH  076%=      5-min Rain = 0
KHO1 261925Z 16012KT 23/18 A3002 RMK A01 T02280183  RH  076%=      5-min Rain = 0
KHO1 261926Z 17010KT 23/18 A3002 RMK A01 T02280184  RH  076%=      5-min Rain = 0
KHO1 261927Z 16015KT 23/18 A3002 RMK A01 T02280182  RH  075%=      5-min Rain = 0
KHO1 261928Z 17015KT 23/18 A3002 RMK A01 T02270182  RH  076%=      5-min Rain = 0
KHO1 261929Z 17016KT 23/18 A3002 RMK A01 T02270182  RH  076%=      5-min Rain = 0
KHO1 261930Z 16013KT 23/18 A3002 RMK A01 T02270183  RH  076%=      5-min Rain = 0
KHO1 261931Z 16012KT 23/18 A3002 RMK A01 T02270184  RH  076%=      5-min Rain = 0
KHO1 261932Z 16010KT 23/19 A3001 RMK A01 T02280185  RH  077%=      5-min Rain = 0
KHO1 261933Z 17010KT 23/19 A3001 RMK A01 T02280185  RH  077%=      5-min Rain = 0
KHO1 261934Z 18014KT 23/18 A3002 RMK A01 T02280182  RH  075%=      5-min Rain = 0
KHO1 261935Z 18014KT 23/18 A3002 RMK A01 T02280181  RH  075%=      5-min Rain = 0
KHO1 261936Z 17012KT 23/18 A3001 RMK A01 T02280182  RH  076%=      5-min Rain = 0
KHO1 261937Z 16013KT 23/18 A3001 RMK A01 T02280182  RH  075%=      5-min Rain = 0
KHO1 261938Z 16013KT 23/18 A3001 RMK A01 T02280182  RH  075%=      5-min Rain = 0
KHO1 261939Z 16013KT 23/18 A3001 RMK A01 T02280181  RH  075%=      5-min Rain = 0
KHO1 261940Z 16010KT 23/18 A30 RMK A01 T02280184  RH  076%=      5-min Rain = 0
KHO1 261941Z 16009KT 23/18 A30 RMK A01 T02290184  RH  076%=      5-min Rain = 0
KHO1 261942Z 16009KT 23/18 A30 RMK A01 T02290183  RH  075%=      5-min Rain = 0
KHO1 261943Z 16010KT 23/18 A30 RMK A01 T02290182  RH  075%=      5-min Rain = 0
KHO1 261944Z 17009KT 23/18 A30 RMK A01 T02300182  RH  075%=      5-min Rain = 0
KHO1 261945Z 17011KT 23/18 A30 RMK A01 T02300179  RH  073%=      5-min Rain = 0
KHO1 261946Z 16009KT 23/18 A2999 RMK A01 T02300179  RH  073%=      5-min Rain = 0
KHO1 261947Z 15008KT 23/18 A2999 RMK A01 T02300182  RH  074%=      5-min Rain = 0
KHO1 261948Z 16009KT 23/18 A2999 RMK A01 T02310182  RH  074%=      5-min Rain = 0
KHO1 261949Z 17009KT 23/18 A2999 RMK A01 T02320184  RH  074%=      5-min Rain = 0
KHO1 261950Z 16011KT 23/18 A30 RMK A01 T02320182  RH  073%=      5-min Rain = 0
KHO1 261951Z 16011KT 23/18 A30 RMK A01 T02320182  RH  073%=      5-min Rain = 0
KHO1 261952Z 16011KT 23/18 A30 RMK A01 T02320182  RH  073%=      5-min Rain = 0
KHO1 261953Z 16012KT 23/18 A30 RMK A01 T02320182  RH  073%=      5-min Rain = 0
KHO1 261954Z 16013KT 23/18 A30 RMK A01 T02330180  RH  072%=      5-min Rain = 0
KHO1 261955Z 16013KT 23/18 A2999 RMK A01 T02330178  RH  071%=      5-min Rain = 0
KHO1 261956Z 16011KT 23/18 A2999 RMK A01 T02320178  RH  072%=      5-min Rain = 0
KHO1 261957Z 16010KT 23/18 A2999 RMK A01 T02320178  RH  071%=      5-min Rain = 0
KHO1 261958Z 16010KT 23/18 A2999 RMK A01 T02330179  RH  072%=      5-min Rain = 0
KHO1 261959Z 17011KT 23/18 A2999 RMK A01 T02330180  RH  072%=      5-min Rain = 0
KHO1 262000Z 17013KT 23/18 A2999 RMK A01 T02330180  RH  072%=      5-min Rain = 0
KHO1 262001Z 17013KT 23/18 A30 RMK A01 T02330179  RH  071%=      5-min Rain = 0
KHO1 262002Z 17013KT 23/18 A2999 RMK A01 T02330179  RH  072%=      5-min Rain = 0
KHO1 262003Z 16010KT 23/18 A2999 RMK A01 T02340181  RH  072%=      5-min Rain = 0
KHO1 262004Z 15012KT 23/18 A2999 RMK A01 T02340181  RH  072%=      5-min Rain = 0
KHO1 262005Z 16012KT 24/18 A2999 RMK A01 T02350181  RH  072%=      5-min Rain = 0
KHO1 262006Z 16012KT 23/18 A2999 RMK A01 T02340179  RH  071%=      5-min Rain = 0
KHO1 262007Z 16012KT 23/18 A2999 RMK A01 T02340180  RH  072%=      5-min Rain = 0
KHO1 262008Z 16012KT 24/18 A2999 RMK A01 T02350180  RH  071%=      5-min Rain = 0
KHO1 262009Z 17013KT 24/18 A2999 RMK A01 T02350179  RH  071%=      5-min Rain = 0
KHO1 262010Z 16013KT 23/18 A2999 RMK A01 T02340178  RH  070%=      5-min Rain = 0
KHO1 262011Z 17012KT 24/18 A2999 RMK A01 T02350178  RH  070%=      5-min Rain = 0
KHO1 262012Z 16011KT 24/18 A2999 RMK A01 T02350179  RH  071%=      5-min Rain = 0
KHO1 262013Z 16014KT 24/18 A2999 RMK A01 T02360178  RH  070%=      5-min Rain = 0
KHO1 262014Z 15013KT 24/18 A2999 RMK A01 T02360179  RH  070%=      5-min Rain = 0
KHO1 262015Z 16012KT 24/18 A2999 RMK A01 T02360181  RH  071%=      5-min Rain = 0
KHO1 262016Z 16014KT 24/18 A2998 RMK A01 T02370178  RH  070%=      5-min Rain = 0
KHO1 262017Z 16014KT 24/18 A2999 RMK A01 T02360178  RH  070%=      5-min Rain = 0
KHO1 262018Z 16014KT 24/18 A2999 RMK A01 T02360178  RH  070%=      5-min Rain = 0
KHO1 262019Z 16013KT 24/18 A2998 RMK A01 T02360179  RH  071%=      5-min Rain = 0
KHO1 262020Z 15014KT 24/18 A2998 RMK A01 T02370179  RH  070%=      5-min Rain = 0
KHO1 262021Z 15013KT 24/18 A2998 RMK A01 T02370178  RH  069%=      5-min Rain = 0
KHO1 262022Z 15013KT 24/18 A2998 RMK A01 T02370177  RH  069%=      5-min Rain = 0
KHO1 262023Z 15012G17KT 24/18 A2998 RMK A01 T02370179  RH  070%=      5-min Rain = 0
KHO1 262024Z 15014KT 24/18 A2997 RMK A01 T02370176  RH  068%=      5-min Rain = 0
KHO1 262025Z 15013KT 24/18 A2997 RMK A01 T02370176  RH  069%=      5-min Rain = 0
KHO1 262026Z 15011KT 24/18 A2997 RMK A01 T02360177  RH  069%=      5-min Rain = 0
KHO1 262027Z 15011KT 24/18 A2997 RMK A01 T02370179  RH  070%=      5-min Rain = 0
KHO1 262028Z 15016KT 24/17 A2997 RMK A01 T02380173  RH  067%=      5-min Rain = 0
KHO1 262029Z 15014KT 24/17 A2997 RMK A01 T02370171  RH  067%=      5-min Rain = 0
KHO1 262030Z 15014KT 24/17 A2997 RMK A01 T02370170  RH  066%=      5-min Rain = 0
KHO1 262031Z 15015KT 24/17 A2997 RMK A01 T02370169  RH  066%=      5-min Rain = 0
KHO1 262032Z 15016KT 24/17 A2997 RMK A01 T02370168  RH  066%=      5-min Rain = 0
KHO1 262033Z 15015KT 24/17 A2997 RMK A01 T02360169  RH  066%=      5-min Rain = 0
KHO1 262034Z 16014KT 24/17 A2997 RMK A01 T02370171  RH  067%=      5-min Rain = 0
KHO1 262035Z 15013KT 24/17 A2997 RMK A01 T02360170  RH  066%=      5-min Rain = 0
KHO1 262036Z 15013KT 24/17 A2996 RMK A01 T02360172  RH  067%=      5-min Rain = 0
KHO1 262037Z 14013G18KT 24/17 A2996 RMK A01 T02350173  RH  068%=      5-min Rain = 0
KHO1 262038Z 15015KT 24/17 A2996 RMK A01 T02350169  RH  066%=      5-min Rain = 0
KHO1 262039Z 15015KT 24/17 A2996 RMK A01 T02350165  RH  065%=      5-min Rain = 0
KHO1 262040Z 15015KT 24/17 A2996 RMK A01 T02350166  RH  065%=      5-min Rain = 0
KHO1 262041Z 15016KT 24/17 A2996 RMK A01 T02350165  RH  065%=      5-min Rain = 0
KHO1 262042Z 16014KT 24/17 A2996 RMK A01 T02350165  RH  064%=      5-min Rain = 0
KHO1 262043Z 15015KT 24/17 A2996 RMK A01 T02360165  RH  064%=      5-min Rain = 0
KHO1 262044Z 16013G18KT 24/17 A2997 RMK A01 T02360167  RH  065%=      5-min Rain = 0
KHO1 262045Z 16014KT 24/17 A2997 RMK A01 T02360168  RH  066%=      5-min Rain = 0
KHO1 262046Z 16013KT 24/17 A2997 RMK A01 T02370168  RH  066%=      5-min Rain = 0
KHO1 262047Z 16013KT 24/17 A2997 RMK A01 T02370169  RH  066%=      5-min Rain = 0
KHO1 262048Z 15012KT 24/17 A2996 RMK A01 T02380169  RH  065%=      5-min Rain = 0
KHO1 262049Z 15012KT 24/17 A2996 RMK A01 T02390170  RH  065%=      5-min Rain = 0
KHO1 262050Z 15011KT 24/17 A2996 RMK A01 T02400172  RH  066%=      5-min Rain = 0
KHO1 262051Z 15013KT 24/17 A2996 RMK A01 T02420172  RH  065%=      5-min Rain = 0
KHO1 262052Z 15014G19KT 24/17 A2996 RMK A01 T02420171  RH  064%=      5-min Rain = 0
KHO1 262053Z 15015KT 24/17 A2996 RMK A01 T02420171  RH  064%=      5-min Rain = 0
KHO1 262054Z 15017KT 24/17 A2996 RMK A01 T02430173  RH  065%=      5-min Rain = 0
KHO1 262055Z 15016G21KT 24/18 A2996 RMK A01 T02430176  RH  066%=      5-min Rain = 0
KHO1 262056Z 15017G22KT 24/18 A2996 RMK A01 T02420175  RH  066%=      5-min Rain = 0
KHO1 262057Z 15015KT 24/18 A2996 RMK A01 T02410176  RH  067%=      5-min Rain = 0
KHO1 262058Z 15017KT 24/17 A2996 RMK A01 T02420174  RH  066%=      5-min Rain = 0
KHO1 262059Z 15014KT 24/18 A2996 RMK A01 T02420175  RH  066%=      5-min Rain = 0
KHO1 262100Z 15014KT 24/18 A2996 RMK A01 T02430178  RH  067%=      5-min Rain = 0
KHO1 262101Z 15015KT 24/18 A2996 RMK A01 T02440179  RH  067%=      5-min Rain = 0
KHO1 262102Z 16016KT 24/18 A2996 RMK A01 T02430179  RH  067%=      5-min Rain = 0
KHO1 262103Z 14015KT 24/18 A2996 RMK A01 T02420179  RH  068%=      5-min Rain = 0
KHO1 262104Z 15015G20KT 24/18 A2996 RMK A01 T02430179  RH  068%=      5-min Rain = 0
KHO1 262105Z 15013KT 24/18 A2996 RMK A01 T02430179  RH  067%=      5-min Rain = 0
KHO1 262106Z 15014KT 24/18 A2996 RMK A01 T02430177  RH  066%=      5-min Rain = 0
KHO1 262107Z 15016KT 24/18 A2997 RMK A01 T02420177  RH  067%=      5-min Rain = 0
KHO1 262108Z 15017KT 24/18 A2997 RMK A01 T02410178  RH  068%=      5-min Rain = 0
KHO1 262109Z 17013KT 24/18 A2997 RMK A01 T02420179  RH  068%=      5-min Rain = 0
KHO1 262110Z 17015KT 24/18 A2997 RMK A01 T02420177  RH  067%=      5-min Rain = 0
KHO1 262111Z 17015KT 24/18 A2997 RMK A01 T02420177  RH  067%=      5-min Rain = 0
KHO1 262112Z 16014KT 24/18 A2997 RMK A01 T02430178  RH  067%=      5-min Rain = 0
KHO1 262113Z 16013KT 25/18 A2997 RMK A01 T02450179  RH  067%=      5-min Rain = 0
KHO1 262114Z 16017KT 25/18 A2997 RMK A01 T02450175  RH  065%=      5-min Rain = 0
KHO1 262115Z 16018KT 24/17 A2997 RMK A01 T02440173  RH  064%=      5-min Rain = 0
KHO1 262116Z 16020KT 24/17 A2997 RMK A01 T02430170  RH  063%=      5-min Rain = 0
KHO1 262117Z 16018KT 24/17 A2996 RMK A01 T02430172  RH  064%=      5-min Rain = 0
KHO1 262118Z 15018KT 24/17 A2996 RMK A01 T02440170  RH  063%=      5-min Rain = 0
KHO1 262119Z 16018KT 25/17 A2996 RMK A01 T02450172  RH  064%=      5-min Rain = 0
KHO1 262120Z 16015G20KT 25/17 A2996 RMK A01 T02460171  RH  063%=      5-min Rain = 0
KHO1 262121Z 15015KT 25/17 A2996 RMK A01 T02470171  RH  063%=      5-min Rain = 0
KHO1 262122Z 16015G20KT 25/17 A2996 RMK A01 T02480172  RH  062%=      5-min Rain = 0
KHO1 262123Z 16018KT 25/17 A2996 RMK A01 T02480169  RH  062%=      5-min Rain = 0
KHO1 262124Z 16019KT 25/17 A2996 RMK A01 T02470167  RH  061%=      5-min Rain = 0
KHO1 262125Z 16018G23KT 25/17 A2996 RMK A01 T02470167  RH  061%=      5-min Rain = 0
KHO1 262126Z 16018G23KT 25/17 A2996 RMK A01 T02470166  RH  061%=      5-min Rain = 0
KHO1 262127Z 16017KT 25/17 A2996 RMK A01 T02470168  RH  062%=      5-min Rain = 0
KHO1 262128Z 15020KT 25/17 A2996 RMK A01 T02470168  RH  061%=      5-min Rain = 0
KHO1 262129Z 16017G22KT 25/17 A2996 RMK A01 T02470169  RH  062%=      5-min Rain = 0
KHO1 262130Z 16016G22KT 25/17 A2996 RMK A01 T02480169  RH  061%=      5-min Rain = 0
KHO1 262131Z 16017KT 25/17 A2996 RMK A01 T02480170  RH  062%=      5-min Rain = 0
KHO1 262132Z 16018KT 25/17 A2995 RMK A01 T02480170  RH  062%=      5-min Rain = 0
KHO1 262133Z 15015KT 25/17 A2995 RMK A01 T02480173  RH  063%=      5-min Rain = 0
KHO1 262134Z 15015KT 25/17 A2995 RMK A01 T02500173  RH  062%=      5-min Rain = 0
KHO1 262135Z 15013KT 25/17 A2995 RMK A01 T02500174  RH  063%=      5-min Rain = 0
KHO1 262136Z 16016KT 25/18 A2995 RMK A01 T02510175  RH  062%=      5-min Rain = 0
KHO1 262137Z 16017KT 25/17 A2995 RMK A01 T02520174  RH  062%=      5-min Rain = 0
KHO1 262138Z 16016KT 25/17 A2995 RMK A01 T02520174  RH  062%=      5-min Rain = 0
KHO1 262139Z 15015KT 25/17 A2995 RMK A01 T02520172  RH  061%=      5-min Rain = 0
KHO1 262140Z 15015KT 25/18 A2995 RMK A01 T02540175  RH  062%=      5-min Rain = 0
KHO1 262141Z 16017KT 26/18 A2995 RMK A01 T02560175  RH  061%=      5-min Rain = 0
KHO1 262142Z 15015KT 26/18 A2995 RMK A01 T02580175  RH  060%=      5-min Rain = 0
KHO1 262143Z 15019KT 26/17 A2995 RMK A01 T02580173  RH  059%=      5-min Rain = 0
KHO1 262144Z 16016G22KT 26/18 A2995 RMK A01 T02570175  RH  061%=      5-min Rain = 0
KHO1 262145Z 16017KT 26/17 A2995 RMK A01 T02570174  RH  060%=      5-min Rain = 0
KHO1 262146Z 16018KT 26/18 A2995 RMK A01 T02560175  RH  061%=      5-min Rain = 0
KHO1 262147Z 16016KT 26/18 A2995 RMK A01 T02560175  RH  061%=      5-min Rain = 0
KHO1 262148Z 15015KT 26/18 A2995 RMK A01 T02570176  RH  061%=      5-min Rain = 0
KHO1 262149Z 16019KT 26/17 A2995 RMK A01 T02580174  RH  060%=      5-min Rain = 0
KHO1 262150Z 17021KT 26/17 A2995 RMK A01 T02550172  RH  060%=      5-min Rain = 0
KHO1 262151Z 16021KT 25/17 A2995 RMK A01 T02540173  RH  061%=      5-min Rain = 0
KHO1 262152Z 17017KT 25/18 A2995 RMK A01 T02540175  RH  062%=      5-min Rain = 0
KHO1 262153Z 17019KT 26/17 A2995 RMK A01 T02580172  RH  059%=      5-min Rain = 0
KHO1 262154Z 17019G24KT 26/17 A2995 RMK A01 T02580171  RH  059%=      5-min Rain = 0
KHO1 262155Z 16018KT 26/17 A2995 RMK A01 T02590170  RH  058%=      5-min Rain = 0
KHO1 262156Z 17019G25KT 26/17 A2995 RMK A01 T02610167  RH  056%=      5-min Rain = 0
KHO1 262157Z 17019KT 26/16 A2995 RMK A01 T02610164  RH  055%=      5-min Rain = 0
KHO1 262158Z 17018KT 26/17 A2995 RMK A01 T02610167  RH  056%=      5-min Rain = 0
KHO1 262159Z 17019KT 26/17 A2995 RMK A01 T02630167  RH  056%=      5-min Rain = 0
KHO1 262200Z 16018KT 26/17 A2995 RMK A01 T02610166  RH  056%=      5-min Rain = 0
KHO1 262201Z 17019KT 26/16 A2995 RMK A01 T02610163  RH  055%=      5-min Rain = 0
KHO1 262202Z 17018KT 26/17 A2995 RMK A01 T02620165  RH  055%=      5-min Rain = 0
KHO1 262203Z 17018KT 26/17 A2995 RMK A01 T02630166  RH  055%=      5-min Rain = 0
KHO1 262204Z 16018KT 26/17 A2995 RMK A01 T02630165  RH  055%=      5-min Rain = 0
KHO1 262205Z 16019KT 26/17 A2995 RMK A01 T02620165  RH  055%=      5-min Rain = 0
KHO1 262206Z 16017KT 26/17 A2994 RMK A01 T02590165  RH  056%=      5-min Rain = 0
KHO1 262207Z 14015KT 26/17 A2994 RMK A01 T02600167  RH  057%=      5-min Rain = 0
KHO1 262208Z 15016KT 26/17 A2994 RMK A01 T02620166  RH  055%=      5-min Rain = 0
KHO1 262209Z 15014G20KT 26/17 A2994 RMK A01 T02630168  RH  056%=      5-min Rain = 0
KHO1 262210Z 16017G22KT 26/16 A2994 RMK A01 T02640164  RH  054%=      5-min Rain = 0
KHO1 262211Z 16016KT 26/16 A2994 RMK A01 T02630162  RH  054%=      5-min Rain = 0
KHO1 262212Z 17019KT 26/16 A2994 RMK A01 T02630160  RH  053%=      5-min Rain = 0
KHO1 262213Z 16017KT 26/16 A2994 RMK A01 T02620159  RH  053%=      5-min Rain = 0
KHO1 262214Z 16018KT 26/16 A2994 RMK A01 T02630159  RH  053%=      5-min Rain = 0
KHO1 262215Z 16016KT 26/16 A2994 RMK A01 T02640160  RH  053%=      5-min Rain = 0
KHO1 262216Z 16019KT 27/16 A2993 RMK A01 T02670155  RH  050%=      5-min Rain = 0
KHO1 262217Z 15019KT 27/16 A2993 RMK A01 T02660156  RH  051%=      5-min Rain = 0
KHO1 262218Z 15016KT 27/16 A2993 RMK A01 T02670157  RH  051%=      5-min Rain = 0
KHO1 262219Z 15017KT 27/15 A2993 RMK A01 T02700153  RH  049%=      5-min Rain = 0
KHO1 262220Z 16015KT 27/15 A2993 RMK A01 T02700152  RH  048%=      5-min Rain = 0
KHO1 262221Z 16018KT 27/15 A2993 RMK A01 T02720154  RH  048%=      5-min Rain = 0
KHO1 262222Z 15017G22KT 27/15 A2993 RMK A01 T02720152  RH  048%=      5-min Rain = 0
KHO1 262223Z 15022KT 27/15 A2993 RMK A01 T02700150  RH  048%=      5-min Rain = 0
KHO1 262224Z 14019KT 27/15 A2993 RMK A01 T02690151  RH  048%=      5-min Rain = 0
KHO1 262225Z 15016KT 27/16 A2993 RMK A01 T02710156  RH  049%=      5-min Rain = 0
KHO1 262226Z 15016KT 27/16 A2992 RMK A01 T02730155  RH  048%=      5-min Rain = 0
KHO1 262227Z 15016G21KT 27/15 A2992 RMK A01 T02740154  RH  048%=      5-min Rain = 0
KHO1 262228Z 15017KT 27/15 A2992 RMK A01 T02740154  RH  048%=      5-min Rain = 0
KHO1 262229Z 16017KT 27/16 A2992 RMK A01 T02730155  RH  048%=      5-min Rain = 0
KHO1 262230Z 14017KT 28/16 A2992 RMK A01 T02750156  RH  048%=      5-min Rain = 0
KHO1 262231Z 15017KT 28/16 A2992 RMK A01 T02750155  RH  048%=      5-min Rain = 0
KHO1 262232Z 16019KT 28/15 A2992 RMK A01 T02750151  RH  047%=      5-min Rain = 0
KHO1 262233Z 16018KT 28/15 A2992 RMK A01 T02750152  RH  047%=      5-min Rain = 0
KHO1 262234Z 15018KT 28/15 A2992 RMK A01 T02750154  RH  048%=      5-min Rain = 0
KHO1 262235Z 15017KT 27/16 A2992 RMK A01 T02740155  RH  048%=      5-min Rain = 0
KHO1 262236Z 16015KT 27/16 A2992 RMK A01 T02740155  RH  048%=      5-min Rain = 0
KHO1 262237Z 16016KT 28/16 A2992 RMK A01 T02750156  RH  048%=      5-min Rain = 0
KHO1 262238Z 15015KT 28/16 A2992 RMK A01 T02770156  RH  048%=      5-min Rain = 0
KHO1 262239Z 15016KT 28/15 A2991 RMK A01 T02780154  RH  047%=      5-min Rain = 0
KHO1 262240Z 14016G21KT 28/16 A2991 RMK A01 T02780155  RH  047%=      5-min Rain = 0
KHO1 262241Z 15016G21KT 28/16 A2991 RMK A01 T02760156  RH  048%=      5-min Rain = 0
KHO1 262242Z 16015KT 28/16 A2991 RMK A01 T02770155  RH  047%=      5-min Rain = 0
KHO1 262243Z 15019KT 28/15 A2991 RMK A01 T02780152  RH  046%=      5-min Rain = 0
KHO1 262244Z 16015KT 28/15 A2991 RMK A01 T02760152  RH  047%=      5-min Rain = 0
KHO1 262245Z 16017KT 28/15 A2991 RMK A01 T02760149  RH  046%=      5-min Rain = 0
KHO1 262246Z 15016KT 28/15 A2991 RMK A01 T02750151  RH  047%=      5-min Rain = 0
KHO1 262247Z 16015G20KT 28/16 A2991 RMK A01 T02770156  RH  047%=      5-min Rain = 0
KHO1 262248Z 16017KT 28/15 A2991 RMK A01 T02760152  RH  047%=      5-min Rain = 0
KHO1 262249Z 16016KT 28/16 A2991 RMK A01 T02760156  RH  048%=      5-min Rain = 0
KHO1 262250Z 15017KT 28/16 A2991 RMK A01 T02770155  RH  047%=      5-min Rain = 0
KHO1 262251Z 14015KT 28/16 A2991 RMK A01 T02770157  RH  048%=      5-min Rain = 0
KHO1 262252Z 15017KT 28/16 A2991 RMK A01 T02780156  RH  047%=      5-min Rain = 0
KHO1 262253Z 15019G24KT 28/16 A2991 RMK A01 T02760156  RH  048%=      5-min Rain = 0
KHO1 262254Z 16020KT 28/15 A2991 RMK A01 T02760153  RH  047%=      5-min Rain = 0
KHO1 262255Z 16020KT 27/15 A2991 RMK A01 T02740150  RH  047%=      5-min Rain = 0
KHO1 262256Z 16020KT 27/15 A2991 RMK A01 T02720147  RH  046%=      5-min Rain = 0
KHO1 262257Z 16018KT 27/15 A2991 RMK A01 T02710148  RH  047%=      5-min Rain = 0
KHO1 262258Z 14019G25KT 27/15 A2991 RMK A01 T02740148  RH  046%=      5-min Rain = 0
KHO1 262259Z 15020G25KT 27/15 A2991 RMK A01 T02730152  RH  047%=      5-min Rain = 0
KHO1 262300Z 15019G26KT 27/14 A2991 RMK A01 T02740144  RH  045%=      5-min Rain = 0
KHO1 262301Z 16019KT 27/15 A2991 RMK A01 T02740147  RH  046%=      5-min Rain = 0
KHO1 262302Z 16020KT 27/15 A2991 RMK A01 T02730154  RH  048%=      5-min Rain = 0
KHO1 262303Z 16021KT 27/16 A2991 RMK A01 T02710155  RH  049%=      5-min Rain = 0
KHO1 262304Z 15021KT 27/15 A2991 RMK A01 T02700154  RH  049%=      5-min Rain = 0
KHO1 262305Z 16020KT 27/16 A2991 RMK A01 T02710158  RH  050%=      5-min Rain = 0
KHO1 262306Z 16019G24KT 27/16 A2991 RMK A01 T02700156  RH  050%=      5-min Rain = 0
KHO1 262307Z 15015G21KT 27/16 A2991 RMK A01 T02700156  RH  050%=      5-min Rain = 0
KHO1 262308Z 15016KT 27/16 A2991 RMK A01 T02730156  RH  049%=      5-min Rain = 0
KHO1 262309Z 15020KT 27/15 A2991 RMK A01 T02730153  RH  048%=      5-min Rain = 0
KHO1 262310Z 15019G25KT 27/16 A2991 RMK A01 T02700156  RH  050%=      5-min Rain = 0
KHO1 262311Z 16017KT 27/16 A2991 RMK A01 T02720160  RH  051%=      5-min Rain = 0
KHO1 262312Z 15017KT 27/16 A2991 RMK A01 T02730157  RH  049%=      5-min Rain = 0
KHO1 262313Z 15019G24KT 27/16 A2991 RMK A01 T02730155  RH  049%=      5-min Rain = 0
KHO1 262314Z 14021KT 27/15 A2991 RMK A01 T02710151  RH  048%=      5-min Rain = 0
KHO1 262315Z 15016KT 27/15 A2991 RMK A01 T02720152  RH  048%=      5-min Rain = 0
KHO1 262316Z 14020KT 27/16 A2991 RMK A01 T02730155  RH  049%=      5-min Rain = 0
KHO1 262317Z 14021KT 27/16 A2991 RMK A01 T02710156  RH  049%=      5-min Rain = 0
KHO1 262318Z 14019KT 27/16 A2991 RMK A01 T02700155  RH  049%=      5-min Rain = 0
KHO1 262319Z 15019KT 27/16 A2991 RMK A01 T02700156  RH  050%=      5-min Rain = 0
KHO1 262320Z 16021G26KT 27/15 A2991 RMK A01 T02700153  RH  049%=      5-min Rain = 0
KHO1 262321Z 16021G26KT 27/15 A2991 RMK A01 T02690153  RH  049%=      5-min Rain = 0
KHO1 262322Z 15020G25KT 27/16 A2991 RMK A01 T02680158  RH  051%=      5-min Rain = 0
KHO1 262323Z 16015KT 27/16 A2991 RMK A01 T02700160  RH  051%=      5-min Rain = 0
KHO1 262324Z 15020G25KT 27/16 A2991 RMK A01 T02720162  RH  051%=      5-min Rain = 0
KHO1 262325Z 15020G26KT 27/16 A2991 RMK A01 T02700161  RH  051%=      5-min Rain = 0
KHO1 262326Z 15023KT 27/16 A299 RMK A01 T02700156  RH  050%=      5-min Rain = 0
KHO1 262327Z 15019KT 27/16 A299 RMK A01 T02690157  RH  050%=      5-min Rain = 0
KHO1 262328Z 15021KT 27/16 A2991 RMK A01 T02690161  RH  052%=      5-min Rain = 0
KHO1 262329Z 15021G26KT 27/17 A299 RMK A01 T02670165  RH  053%=      5-min Rain = 0
KHO1 262330Z 15020KT 27/17 A299 RMK A01 T02660168  RH  055%=      5-min Rain = 0
KHO1 262331Z 14021G27KT 27/17 A299 RMK A01 T02670168  RH  055%=      5-min Rain = 0
KHO1 262332Z 14019G24KT 27/17 A299 RMK A01 T02670168  RH  055%=      5-min Rain = 0
KHO1 262333Z 15019G25KT 27/17 A299 RMK A01 T02670168  RH  054%=      5-min Rain = 0
KHO1 262334Z 16023KT 27/16 A299 RMK A01 T02670164  RH  053%=      5-min Rain = 0
KHO1 262335Z 15023G28KT 27/16 A299 RMK A01 T02660164  RH  054%=      5-min Rain = 0
KHO1 262336Z 15021G26KT 27/17 A299 RMK A01 T02650166  RH  054%=      5-min Rain = 0
KHO1 262337Z 15020G25KT 27/17 A299 RMK A01 T02650167  RH  055%=      5-min Rain = 0
KHO1 262338Z 15019KT 27/17 A299 RMK A01 T02660168  RH  055%=      5-min Rain = 0
KHO1 262339Z 15015KT 27/17 A299 RMK A01 T02660170  RH  055%=      5-min Rain = 0
KHO1 262340Z 16021KT 27/17 A299 RMK A01 T02660169  RH  055%=      5-min Rain = 0
KHO1 262341Z 16021KT 26/17 A2989 RMK A01 T02640169  RH  056%=      5-min Rain = 0
KHO1 262342Z 16019G25KT 26/17 A2989 RMK A01 T02640171  RH  057%=      5-min Rain = 0
KHO1 262343Z 16022G27KT 27/17 A299 RMK A01 T02650171  RH  056%=      5-min Rain = 0
KHO1 262344Z 15022G27KT 26/17 A299 RMK A01 T02630172  RH  057%=      5-min Rain = 0
KHO1 262345Z 15023KT 26/17 A299 RMK A01 T02620173  RH  058%=      5-min Rain = 0
KHO1 262346Z 15021G26KT 26/17 A299 RMK A01 T02610173  RH  058%=      5-min Rain = 0
KHO1 262347Z 15022KT 26/17 A2989 RMK A01 T02610173  RH  058%=      5-min Rain = 0
KHO1 262348Z 15024KT 26/17 A2989 RMK A01 T02610173  RH  058%=      5-min Rain = 0
KHO1 262349Z 16024KT 26/17 A2989 RMK A01 T02600174  RH  059%=      5-min Rain = 0
KHO1 262350Z 15020G28KT 26/18 A2989 RMK A01 T02600175  RH  059%=      5-min Rain = 0
KHO1 262351Z 15018KT 26/17 A2989 RMK A01 T02610174  RH  059%=      5-min Rain = 0
KHO1 262352Z 15020KT 26/17 A2989 RMK A01 T02620172  RH  058%=      5-min Rain = 0
KHO1 262353Z 14021KT 26/17 A2989 RMK A01 T02610170  RH  057%=      5-min Rain = 0
KHO1 262354Z 14020KT 26/17 A2989 RMK A01 T02610167  RH  056%=      5-min Rain = 0
KHO1 262355Z 15019KT 26/17 A2989 RMK A01 T02610167  RH  056%=      5-min Rain = 0
KHO1 262356Z 15022KT 26/16 A2989 RMK A01 T02610164  RH  055%=      5-min Rain = 0
KHO1 262357Z 15019KT 26/17 A2989 RMK A01 T02600165  RH  056%=      5-min Rain = 0
KHO1 262358Z 15019G25KT 26/17 A2989 RMK A01 T02610167  RH  056%=      5-min Rain = 0
KHO1 262359Z 15021KT 26/17 A2989 RMK A01 T02610168  RH  056%=      5-min Rain = 0
KHO1 270000Z 15019G24KT 26/17 A2989 RMK A01 T02610168  RH  056%=      5-min Rain = 0
KHO1 270001Z 16022KT 26/17 A299 RMK A01 T02610165  RH  055%=      5-min Rain = 0
KHO1 270002Z 16021G26KT 26/16 A2989 RMK A01 T02600164  RH  055%=      5-min Rain = 0
KHO1 270003Z 16021KT 26/16 A2989 RMK A01 T02600163  RH  055%=      5-min Rain = 0
KHO1 270004Z 15021G27KT 26/16 A2989 RMK A01 T02600163  RH  055%=      5-min Rain = 0
KHO1 270005Z 16021G26KT 26/16 A2989 RMK A01 T02610164  RH  055%=      5-min Rain = 0
KHO1 270006Z 15020G26KT 26/17 A2989 RMK A01 T02600167  RH  056%=      5-min Rain = 0
KHO1 270007Z 16015KT 26/17 A2989 RMK A01 T02610169  RH  057%=      5-min Rain = 0
KHO1 270008Z 16014KT 26/17 A2989 RMK A01 T02620168  RH  056%=      5-min Rain = 0
KHO1 270009Z 16021G26KT 26/16 A2989 RMK A01 T02630164  RH  055%=      5-min Rain = 0
KHO1 270010Z 16021KT 26/16 A2989 RMK A01 T02610163  RH  055%=      5-min Rain = 0
KHO1 270011Z 16021KT 26/17 A2989 RMK A01 T02610165  RH  055%=      5-min Rain = 0
KHO1 270012Z 16019G24KT 26/17 A2989 RMK A01 T02610167  RH  056%=      5-min Rain = 0
KHO1 270013Z 15018G23KT 26/17 A2989 RMK A01 T02610168  RH  056%=      5-min Rain = 0
KHO1 270014Z 16020KT 26/17 A2989 RMK A01 T02610167  RH  056%=      5-min Rain = 0
KHO1 270015Z 15021G26KT 26/17 A2989 RMK A01 T02610168  RH  057%=      5-min Rain = 0
KHO1 270016Z 15015KT 26/17 A2989 RMK A01 T02610169  RH  057%=      5-min Rain = 0
KHO1 270017Z 15016G22KT 26/17 A2989 RMK A01 T02620168  RH  056%=      5-min Rain = 0
KHO1 270018Z 15018KT 26/17 A2989 RMK A01 T02620166  RH  056%=      5-min Rain = 0
KHO1 270019Z 15020G25KT 26/17 A2989 RMK A01 T02610168  RH  056%=      5-min Rain = 0
KHO1 270020Z 15017G23KT 26/17 A2989 RMK A01 T02600169  RH  057%=      5-min Rain = 0
KHO1 270021Z 16023KT 26/17 A2989 RMK A01 T02600167  RH  057%=      5-min Rain = 0
KHO1 270022Z 15019G25KT 26/17 A2989 RMK A01 T02590167  RH  057%=      5-min Rain = 0
KHO1 270023Z 15022G28KT 26/17 A2989 RMK A01 T02590166  RH  056%=      5-min Rain = 0
KHO1 270024Z 15021G26KT 26/17 A2989 RMK A01 T02590167  RH  057%=      5-min Rain = 0
KHO1 270025Z 15021KT 26/17 A2989 RMK A01 T02590167  RH  057%=      5-min Rain = 0
KHO1 270026Z 15019KT 26/17 A2989 RMK A01 T02590168  RH  057%=      5-min Rain = 0
KHO1 270027Z 15019G25KT 26/17 A2989 RMK A01 T02590168  RH  057%=      5-min Rain = 0
KHO1 270028Z 15024KT 26/17 A2989 RMK A01 T02590168  RH  057%=      5-min Rain = 0
KHO1 270029Z 15022G27KT 26/17 A2988 RMK A01 T02580169  RH  058%=      5-min Rain = 0
KHO1 270030Z 15024KT 26/17 A2988 RMK A01 T02580168  RH  058%=      5-min Rain = 0
KHO1 270031Z 15025G30KT 26/17 A2988 RMK A01 T02570168  RH  058%=      5-min Rain = 0
KHO1 270032Z 16024KT 26/17 A2988 RMK A01 T02570167  RH  058%=      5-min Rain = 0
KHO1 270033Z 16019G25KT 26/17 A2988 RMK A01 T02570169  RH  058%=      5-min Rain = 0
KHO1 270034Z 16023G29KT 26/17 A2988 RMK A01 T02580169  RH  058%=      5-min Rain = 0
KHO1 270035Z 16024KT 26/17 A2988 RMK A01 T02570170  RH  059%=      5-min Rain = 0
KHO1 270036Z 16017G22KT 26/17 A2988 RMK A01 T02570170  RH  059%=      5-min Rain = 0
KHO1 270037Z 14018G25KT 26/17 A2988 RMK A01 T02580171  RH  059%=      5-min Rain = 0
KHO1 270038Z 15022G27KT 26/17 A2988 RMK A01 T02580171  RH  059%=      5-min Rain = 0
KHO1 270039Z 15021KT 26/17 A2988 RMK A01 T02570171  RH  059%=      5-min Rain = 0
KHO1 270040Z 15018G23KT 26/17 A2988 RMK A01 T02570171  RH  059%=      5-min Rain = 0
KHO1 270041Z 15019G24KT 26/17 A2988 RMK A01 T02580171  RH  059%=      5-min Rain = 0
KHO1 270042Z 16018KT 26/17 A2988 RMK A01 T02580171  RH  059%=      5-min Rain = 0
KHO1 270043Z 16017G22KT 26/17 A2988 RMK A01 T02580171  RH  059%=      5-min Rain = 0
KHO1 270044Z 16018KT 26/17 A2988 RMK A01 T02580170  RH  058%=      5-min Rain = 0
KHO1 270045Z 16015KT 26/17 A2988 RMK A01 T02580171  RH  058%=      5-min Rain = 0
KHO1 270046Z 15017G25KT 26/17 A2988 RMK A01 T02580170  RH  058%=      5-min Rain = 0
KHO1 270047Z 15022G28KT 26/17 A2988 RMK A01 T02580168  RH  058%=      5-min Rain = 0
KHO1 270048Z 15023KT 26/17 A2989 RMK A01 T02570167  RH  058%=      5-min Rain = 0
KHO1 270049Z 15022G28KT 26/17 A2988 RMK A01 T02560167  RH  058%=      5-min Rain = 0
KHO1 270050Z 15022KT 26/17 A2988 RMK A01 T02560168  RH  058%=      5-min Rain = 0
KHO1 270051Z 15021KT 26/17 A2988 RMK A01 T02560169  RH  058%=      5-min Rain = 0
KHO1 270052Z 15017KT 26/17 A2988 RMK A01 T02560169  RH  059%=      5-min Rain = 0
KHO1 270053Z 15021KT 26/17 A2988 RMK A01 T02560170  RH  059%=      5-min Rain = 0
KHO1 270054Z 15022G29KT 26/17 A2988 RMK A01 T02550169  RH  059%=      5-min Rain = 0
KHO1 270055Z 15024KT 26/17 A2988 RMK A01 T02550168  RH  059%=      5-min Rain = 0
KHO1 270056Z 15023KT 26/17 A2988 RMK A01 T02550169  RH  059%=      5-min Rain = 0
KHO1 270057Z 15020KT 26/17 A2988 RMK A01 T02550170  RH  059%=      5-min Rain = 0
KHO1 270058Z 16020KT 26/17 A2988 RMK A01 T02550170  RH  059%=      5-min Rain = 0
KHO1 270059Z 16018KT 26/17 A2988 RMK A01 T02550169  RH  059%=      5-min Rain = 0
KHO1 270100Z 16017KT 25/17 A2988 RMK A01 T02540169  RH  059%=      5-min Rain = 0
KHO1 270101Z 16019KT 25/17 A2988 RMK A01 T02540168  RH  059%=      5-min Rain = 0
KHO1 270102Z 16020KT 25/17 A2988 RMK A01 T02540168  RH  059%=      5-min Rain = 0
KHO1 270103Z 16019KT 25/17 A2988 RMK A01 T02540168  RH  059%=      5-min Rain = 0
KHO1 270104Z 16018G23KT 25/17 A2988 RMK A01 T02530169  RH  059%=      5-min Rain = 0
KHO1 270105Z 16017KT 25/17 A2988 RMK A01 T02530169  RH  060%=      5-min Rain = 0
KHO1 270106Z 16018G25KT 25/17 A2988 RMK A01 T02530169  RH  060%=      5-min Rain = 0
KHO1 270107Z 16018KT 25/17 A2988 RMK A01 T02530169  RH  060%=      5-min Rain = 0
KHO1 270108Z 15016KT 25/17 A2988 RMK A01 T02530170  RH  060%=      5-min Rain = 0
KHO1 270109Z 15014G21KT 25/17 A2988 RMK A01 T02530170  RH  060%=      5-min Rain = 0
KHO1 270110Z 15017KT 25/17 A2988 RMK A01 T02530170  RH  060%=      5-min Rain = 0
KHO1 270111Z 15020G26KT 25/17 A2988 RMK A01 T02530170  RH  060%=      5-min Rain = 0
KHO1 270112Z 16019G26KT 25/17 A2988 RMK A01 T02520170  RH  060%=      5-min Rain = 0
KHO1 270113Z 15020KT 25/17 A2988 RMK A01 T02520170  RH  060%=      5-min Rain = 0
KHO1 270114Z 15017KT 25/17 A2988 RMK A01 T02520170  RH  061%=      5-min Rain = 0
KHO1 270115Z 16019G27KT 25/17 A2988 RMK A01 T02510170  RH  061%=      5-min Rain = 0
KHO1 270116Z 16021G27KT 25/17 A2988 RMK A01 T02510170  RH  061%=      5-min Rain = 0
KHO1 270117Z 16018G24KT 25/17 A2988 RMK A01 T02510170  RH  061%=      5-min Rain = 0
KHO1 270118Z 16021KT 25/17 A2988 RMK A01 T02510170  RH  061%=      5-min Rain = 0
KHO1 270119Z 16020G25KT 25/17 A2988 RMK A01 T02500170  RH  061%=      5-min Rain = 0
KHO1 270120Z 15016KT 25/17 A2988 RMK A01 T02500170  RH  061%=      5-min Rain = 0
KHO1 270121Z 15017KT 25/17 A2987 RMK A01 T02490170  RH  061%=      5-min Rain = 0
KHO1 270122Z 15016KT 25/17 A2988 RMK A01 T02490170  RH  062%=      5-min Rain = 0
KHO1 270123Z 16019KT 25/17 A2988 RMK A01 T02490170  RH  062%=      5-min Rain = 0
KHO1 270124Z 16019KT 25/17 A2988 RMK A01 T02490171  RH  062%=      5-min Rain = 0
KHO1 270125Z 15017KT 25/17 A2988 RMK A01 T02490171  RH  062%=      5-min Rain = 0
KHO1 270126Z 16016G25KT 25/17 A2988 RMK A01 T02480171  RH  062%=      5-min Rain = 0
KHO1 270127Z 15021G27KT 25/17 A2988 RMK A01 T02480170  RH  062%=      5-min Rain = 0
KHO1 270128Z 16016G21KT 25/17 A2988 RMK A01 T02480170  RH  062%=      5-min Rain = 0
KHO1 270129Z 15020G25KT 25/17 A2988 RMK A01 T02480170  RH  062%=      5-min Rain = 0
KHO1 270130Z 15019KT 25/17 A2988 RMK A01 T02470169  RH  062%=      5-min Rain = 0
KHO1 270131Z 16019G24KT 25/17 A2988 RMK A01 T02470169  RH  062%=      5-min Rain = 0
KHO1 270132Z 16022KT 25/17 A2988 RMK A01 T02470168  RH  061%=      5-min Rain = 0
KHO1 270133Z 15017KT 25/17 A2988 RMK A01 T02470168  RH  061%=      5-min Rain = 0
KHO1 270134Z 16018G24KT 25/17 A2988 RMK A01 T02470168  RH  061%=      5-min Rain = 0
KHO1 270135Z 16016KT 25/17 A2988 RMK A01 T02460168  RH  061%=      5-min Rain = 0
KHO1 270136Z 16017KT 25/17 A2988 RMK A01 T02460167  RH  061%=      5-min Rain = 0
KHO1 270137Z 16020G25KT 25/17 A2988 RMK A01 T02460167  RH  061%=      5-min Rain = 0
KHO1 270138Z 16016KT 25/17 A2988 RMK A01 T02460167  RH  061%=      5-min Rain = 0
KHO1 270139Z 16017G24KT 25/17 A2988 RMK A01 T02460167  RH  062%=      5-min Rain = 0
KHO1 270140Z 15018KT 25/17 A2989 RMK A01 T02450167  RH  062%=      5-min Rain = 0
KHO1 270141Z 15018KT 25/17 A2989 RMK A01 T02450168  RH  062%=      5-min Rain = 0
KHO1 270142Z 16014KT 25/17 A2989 RMK A01 T02450168  RH  062%=      5-min Rain = 0
KHO1 270143Z 15013KT 24/17 A2989 RMK A01 T02440168  RH  062%=      5-min Rain = 0
KHO1 270144Z 15016G21KT 24/17 A2989 RMK A01 T02440167  RH  062%=      5-min Rain = 0
KHO1 270145Z 16017G23KT 24/17 A2989 RMK A01 T02440166  RH  062%=      5-min Rain = 0
KHO1 270146Z 16014KT 24/17 A2989 RMK A01 T02440166  RH  062%=      5-min Rain = 0
KHO1 270147Z 16015KT 24/17 A2989 RMK A01 T02430167  RH  062%=      5-min Rain = 0
KHO1 270148Z 16015KT 24/17 A2989 RMK A01 T02430167  RH  062%=      5-min Rain = 0
KHO1 270149Z 15017KT 24/17 A2989 RMK A01 T02430167  RH  062%=      5-min Rain = 0
KHO1 270150Z 16016KT 24/17 A2989 RMK A01 T02430167  RH  062%=      5-min Rain = 0
KHO1 270151Z 16015KT 24/17 A2989 RMK A01 T02420167  RH  063%=      5-min Rain = 0
KHO1 270152Z 16014G20KT 24/17 A2989 RMK A01 T02420167  RH  063%=      5-min Rain = 0
KHO1 270153Z 16017KT 24/17 A2989 RMK A01 T02420167  RH  063%=      5-min Rain = 0
KHO1 270154Z 15014KT 24/17 A2989 RMK A01 T02420167  RH  063%=      5-min Rain = 0
KHO1 270155Z 15013KT 24/17 A2989 RMK A01 T02410168  RH  063%=      5-min Rain = 0
KHO1 270156Z 15011KT 24/17 A2989 RMK A01 T02400168  RH  064%=      5-min Rain = 0
KHO1 270157Z 15014KT 24/17 A2989 RMK A01 T02400168  RH  064%=      5-min Rain = 0
KHO1 270158Z 15014KT 24/17 A2989 RMK A01 T02400168  RH  064%=      5-min Rain = 0
KHO1 270159Z 16017KT 24/17 A2989 RMK A01 T02400169  RH  064%=      5-min Rain = 0
KHO1 270200Z 16016KT 24/17 A2989 RMK A01 T02400169  RH  064%=      5-min Rain = 0
KHO1 270201Z 15014KT 24/17 A2989 RMK A01 T02400169  RH  064%=      5-min Rain = 0
KHO1 270202Z 15017KT 24/17 A2989 RMK A01 T02400169  RH  065%=      5-min Rain = 0
KHO1 270203Z 15013KT 24/17 A2989 RMK A01 T02390169  RH  065%=      5-min Rain = 0
KHO1 270204Z 15014KT 24/17 A2989 RMK A01 T02390169  RH  065%=      5-min Rain = 0
KHO1 270205Z 16013KT 24/17 A2989 RMK A01 T02380168  RH  065%=      5-min Rain = 0
KHO1 270206Z 16016KT 24/17 A2989 RMK A01 T02380168  RH  065%=      5-min Rain = 0
KHO1 270207Z 16014KT 24/17 A2989 RMK A01 T02380168  RH  065%=      5-min Rain = 0
KHO1 270208Z 16017G22KT 24/17 A2989 RMK A01 T02370168  RH  065%=      5-min Rain = 0
KHO1 270209Z 16017KT 24/17 A2989 RMK A01 T02380168  RH  065%=      5-min Rain = 0
KHO1 270210Z 16018KT 24/17 A2989 RMK A01 T02370167  RH  065%=      5-min Rain = 0
KHO1 270211Z 16016KT 24/17 A2989 RMK A01 T02370167  RH  065%=      5-min Rain = 0
KHO1 270212Z 16018KT 24/17 A2989 RMK A01 T02360166  RH  065%=      5-min Rain = 0
KHO1 270213Z 16018G23KT 24/17 A2989 RMK A01 T02370166  RH  064%=      5-min Rain = 0
KHO1 270214Z 16016KT 24/17 A2989 RMK A01 T02370165  RH  064%=      5-min Rain = 0
KHO1 270215Z 16019KT 24/17 A2989 RMK A01 T02360165  RH  064%=      5-min Rain = 0
KHO1 270216Z 16016KT 24/17 A2989 RMK A01 T02360165  RH  064%=      5-min Rain = 0
KHO1 270217Z 16017KT 24/17 A299 RMK A01 T02360165  RH  065%=      5-min Rain = 0
KHO1 270218Z 17016KT 24/17 A2989 RMK A01 T02350165  RH  065%=      5-min Rain = 0
KHO1 270219Z 16017KT 24/17 A2989 RMK A01 T02350165  RH  065%=      5-min Rain = 0
KHO1 270220Z 16019KT 24/17 A2989 RMK A01 T02350165  RH  065%=      5-min Rain = 0
KHO1 270221Z 16018KT 24/17 A2989 RMK A01 T02350165  RH  065%=      5-min Rain = 0
KHO1 270222Z 16020KT 24/16 A2989 RMK A01 T02350164  RH  064%=      5-min Rain = 0
KHO1 270223Z 16021KT 24/16 A2989 RMK A01 T02350164  RH  064%=      5-min Rain = 0
KHO1 270224Z 16017KT 24/16 A2989 RMK A01 T02350164  RH  065%=      5-min Rain = 0
KHO1 270225Z 16019KT 23/16 A2989 RMK A01 T02340164  RH  065%=      5-min Rain = 0
KHO1 270226Z 16020KT 23/16 A2989 RMK A01 T02340164  RH  065%=      5-min Rain = 0
KHO1 270227Z 16020KT 23/16 A2989 RMK A01 T02340164  RH  065%=      5-min Rain = 0
KHO1 270228Z 16019KT 23/16 A2989 RMK A01 T02340164  RH  065%=      5-min Rain = 0
KHO1 270229Z 16019KT 23/16 A2989 RMK A01 T02330164  RH  065%=      5-min Rain = 0
KHO1 270230Z 16018KT 23/16 A2989 RMK A01 T02330164  RH  065%=      5-min Rain = 0
KHO1 270231Z 16018G23KT 23/16 A2989 RMK A01 T02320164  RH  066%=      5-min Rain = 0
KHO1 270232Z 16019KT 23/17 A2989 RMK A01 T02320165  RH  066%=      5-min Rain = 0
KHO1 270233Z 16018G24KT 23/17 A2989 RMK A01 T02320165  RH  066%=      5-min Rain = 0
KHO1 270234Z 16016KT 23/17 A2989 RMK A01 T02310165  RH  066%=      5-min Rain = 0
KHO1 270235Z 16020G27KT 23/17 A2989 RMK A01 T02310165  RH  066%=      5-min Rain = 0
KHO1 270236Z 16021G27KT 23/17 A299 RMK A01 T02310165  RH  066%=      5-min Rain = 0
KHO1 270237Z 16021KT 23/17 A299 RMK A01 T02310165  RH  066%=      5-min Rain = 0
KHO1 270238Z 16021G27KT 23/17 A299 RMK A01 T02310165  RH  066%=      5-min Rain = 0
KHO1 270239Z 16019KT 23/17 A299 RMK A01 T02310165  RH  067%=      5-min Rain = 0
KHO1 270240Z 17021KT 23/17 A299 RMK A01 T02300166  RH  067%=      5-min Rain = 0
KHO1 270241Z 16022KT 23/17 A299 RMK A01 T02300166  RH  067%=      5-min Rain = 0
KHO1 270242Z 16023KT 23/17 A299 RMK A01 T02300166  RH  067%=      5-min Rain = 0
KHO1 270243Z 16022KT 23/17 A299 RMK A01 T02300166  RH  067%=      5-min Rain = 0
KHO1 270244Z 16020KT 23/17 A299 RMK A01 T02300166  RH  067%=      5-min Rain = 0
KHO1 270245Z 16018KT 23/17 A299 RMK A01 T02290166  RH  067%=      5-min Rain = 0
KHO1 270246Z 16022KT 23/17 A299 RMK A01 T02290166  RH  068%=      5-min Rain = 0
KHO1 270247Z 16020G26KT 23/17 A299 RMK A01 T02290166  RH  068%=      5-min Rain = 0
KHO1 270248Z 16020KT 23/17 A299 RMK A01 T02290166  RH  068%=      5-min Rain = 0
KHO1 270249Z 16018KT 23/17 A299 RMK A01 T02280166  RH  068%=      5-min Rain = 0
KHO1 270250Z 16022KT 23/17 A299 RMK A01 T02280166  RH  068%=      5-min Rain = 0
KHO1 270251Z 16020KT 23/17 A299 RMK A01 T02280166  RH  068%=      5-min Rain = 0
KHO1 270252Z 17020KT 23/17 A299 RMK A01 T02280166  RH  068%=      5-min Rain = 0
KHO1 270253Z 16020G25KT 23/17 A299 RMK A01 T02280166  RH  068%=      5-min Rain = 0
KHO1 270254Z 17018KT 23/17 A299 RMK A01 T02280166  RH  068%=      5-min Rain = 0
KHO1 270255Z 17018G23KT 23/17 A299 RMK A01 T02270166  RH  068%=      5-min Rain = 0
KHO1 270256Z 16021G28KT 23/17 A299 RMK A01 T02270166  RH  068%=      5-min Rain = 0
KHO1 270257Z 16021G26KT 23/17 A299 RMK A01 T02270166  RH  068%=      5-min Rain = 0
KHO1 270258Z 16017KT 23/17 A299 RMK A01 T02270166  RH  068%=      5-min Rain = 0
KHO1 270259Z 16017KT 23/17 A299 RMK A01 T02260166  RH  069%=      5-min Rain = 0
KHO1 270300Z 16021G28KT 23/17 A299 RMK A01 T02260166  RH  069%=      5-min Rain = 0
KHO1 270301Z 16024G29KT 23/17 A299 RMK A01 T02260166  RH  069%=      5-min Rain = 0
KHO1 270302Z 16019G26KT 23/17 A299 RMK A01 T02260166  RH  069%=      5-min Rain = 0
KHO1 270303Z 15022G27KT 23/17 A299 RMK A01 T02260166  RH  069%=      5-min Rain = 0
KHO1 270304Z 16019G25KT 23/17 A299 RMK A01 T02260166  RH  069%=      5-min Rain = 0
KHO1 270305Z 16022G27KT 23/17 A299 RMK A01 T02260166  RH  069%=      5-min Rain = 0
KHO1 270306Z 16019KT 23/17 A299 RMK A01 T02260166  RH  069%=      5-min Rain = 0
KHO1 270307Z 17020G25KT 23/17 A299 RMK A01 T02250166  RH  069%=      5-min Rain = 0
KHO1 270308Z 17020G26KT 23/17 A299 RMK A01 T02250166  RH  069%=      5-min Rain = 0
KHO1 270309Z 16017G22KT 23/17 A299 RMK A01 T02250166  RH  069%=      5-min Rain = 0
KHO1 270310Z 17019G24KT 22/17 A299 RMK A01 T02240166  RH  070%=      5-min Rain = 0
KHO1 270311Z 16019KT 22/17 A299 RMK A01 T02240166  RH  070%=      5-min Rain = 0
KHO1 270312Z 16021G26KT 22/17 A299 RMK A01 T02240166  RH  070%=      5-min Rain = 0
KHO1 270313Z 16019KT 22/17 A299 RMK A01 T02240166  RH  070%=      5-min Rain = 0
KHO1 270314Z 16019KT 22/17 A299 RMK A01 T02240166  RH  070%=      5-min Rain = 0
KHO1 270315Z 16017KT 22/17 A299 RMK A01 T02240166  RH  070%=      5-min Rain = 0
KHO1 270316Z 17018KT 22/17 A299 RMK A01 T02230166  RH  070%=      5-min Rain = 0
KHO1 270317Z 16021KT 22/17 A299 RMK A01 T02230166  RH  070%=      5-min Rain = 0
KHO1 270318Z 17023KT 22/17 A299 RMK A01 T02240166  RH  070%=      5-min Rain = 0
KHO1 270319Z 16018G25KT 22/17 A299 RMK A01 T02240166  RH  070%=      5-min Rain = 0
KHO1 270320Z 16018KT 22/17 A299 RMK A01 T02230166  RH  070%=      5-min Rain = 0
KHO1 270321Z 17020KT 22/17 A299 RMK A01 T02230166  RH  070%=      5-min Rain = 0
KHO1 270322Z 17019G24KT 22/17 A299 RMK A01 T02230166  RH  070%=      5-min Rain = 0
KHO1 270323Z 17022KT 22/17 A2991 RMK A01 T02230166  RH  070%=      5-min Rain = 0
KHO1 270324Z 16018G24KT 22/17 A299 RMK A01 T02230166  RH  070%=      5-min Rain = 0
KHO1 270325Z 17020KT 22/17 A2991 RMK A01 T02230166  RH  070%=      5-min Rain = 0
KHO1 270326Z 17019KT 22/17 A2991 RMK A01 T02230166  RH  070%=      5-min Rain = 0
KHO1 270327Z 16014KT 22/17 A2991 RMK A01 T02220165  RH  070%=      5-min Rain = 0
KHO1 270328Z 16014G19KT 22/17 A2991 RMK A01 T02220165  RH  070%=      5-min Rain = 0
KHO1 270329Z 16017KT 22/17 A2991 RMK A01 T02210165  RH  070%=      5-min Rain = 0
KHO1 270330Z 16017KT 22/17 A2991 RMK A01 T02220165  RH  070%=      5-min Rain = 0
KHO1 270331Z 16015KT 22/17 A2991 RMK A01 T02220165  RH  070%=      5-min Rain = 0
KHO1 270332Z 17018G25KT 22/17 A2991 RMK A01 T02210165  RH  070%=      5-min Rain = 0
KHO1 270333Z 17017KT 22/17 A2991 RMK A01 T02220165  RH  070%=      5-min Rain = 0
KHO1 270334Z 16017KT 22/17 A2991 RMK A01 T02220165  RH  070%=      5-min Rain = 0
KHO1 270335Z 17014KT 22/17 A2991 RMK A01 T02210165  RH  070%=      5-min Rain = 0
KHO1 270336Z 17018G23KT 22/17 A2991 RMK A01 T02210165  RH  070%=      5-min Rain = 0
KHO1 270337Z 17018KT 22/17 A2991 RMK A01 T02210165  RH  070%=      5-min Rain = 0
KHO1 270338Z 17020G26KT 22/17 A2991 RMK A01 T02210165  RH  070%=      5-min Rain = 0
KHO1 270339Z 17022KT 22/17 A2991 RMK A01 T02220165  RH  070%=      5-min Rain = 0
KHO1 270340Z 16021KT 22/17 A2991 RMK A01 T02220165  RH  070%=      5-min Rain = 0
KHO1 270341Z 17020G25KT 22/16 A2991 RMK A01 T02220164  RH  070%=      5-min Rain = 0
KHO1 270342Z 16018G23KT 22/16 A2991 RMK A01 T02220164  RH  070%=      5-min Rain = 0
KHO1 270343Z 17015KT 22/16 A2991 RMK A01 T02210164  RH  070%=      5-min Rain = 0
KHO1 270344Z 17018KT 22/16 A2991 RMK A01 T02210164  RH  070%=      5-min Rain = 0
KHO1 270345Z 17016KT 22/16 A2991 RMK A01 T02210164  RH  070%=      5-min Rain = 0
KHO1 270346Z 17014KT 22/16 A2991 RMK A01 T02200164  RH  071%=      5-min Rain = 0
KHO1 270347Z 17017G22KT 22/16 A2991 RMK A01 T02200164  RH  071%=      5-min Rain = 0
KHO1 270348Z 17015G20KT 22/16 A2991 RMK A01 T02200164  RH  071%=      5-min Rain = 0
KHO1 270349Z 16019G25KT 22/16 A2991 RMK A01 T02200164  RH  071%=      5-min Rain = 0
KHO1 270350Z 17017G24KT 22/16 A2991 RMK A01 T02200164  RH  070%=      5-min Rain = 0
KHO1 270351Z 17016KT 22/16 A2991 RMK A01 T02200164  RH  071%=      5-min Rain = 0
KHO1 270352Z 17018KT 22/16 A2991 RMK A01 T02200164  RH  071%=      5-min Rain = 0
KHO1 270353Z 17014KT 22/16 A2991 RMK A01 T02200164  RH  071%=      5-min Rain = 0
KHO1 270354Z 17015G22KT 22/16 A2991 RMK A01 T02190164  RH  071%=      5-min Rain = 0
KHO1 270355Z 17017G23KT 22/16 A2992 RMK A01 T02190164  RH  071%=      5-min Rain = 0
KHO1 270356Z 17016KT 22/16 A2992 RMK A01 T02190164  RH  071%=      5-min Rain = 0
KHO1 270357Z 18015G20KT 22/16 A2992 RMK A01 T02190164  RH  071%=      5-min Rain = 0
KHO1 270358Z 17017KT 22/16 A2992 RMK A01 T02190164  RH  071%=      5-min Rain = 0
KHO1 270359Z 17017KT 22/16 A2992 RMK A01 T02190164  RH  071%=      5-min Rain = 0
KHO1 270400Z 17014KT 22/16 A2992 RMK A01 T02190164  RH  071%=      5-min Rain = 0
KHO1 270401Z 17015G20KT 22/16 A2992 RMK A01 T02190164  RH  071%=      5-min Rain = 0
KHO1 270402Z 17015G20KT 22/16 A2992 RMK A01 T02180163  RH  071%=      5-min Rain = 0
KHO1 270403Z 17016G21KT 22/16 A2992 RMK A01 T02180163  RH  071%=      5-min Rain = 0
KHO1 270404Z 18018KT 22/16 A2992 RMK A01 T02180163  RH  071%=      5-min Rain = 0
KHO1 270405Z 17014G19KT 22/16 A2992 RMK A01 T02190163  RH  071%=      5-min Rain = 0
KHO1 270406Z 17013KT 22/16 A2992 RMK A01 T02180163  RH  071%=      5-min Rain = 0
KHO1 270407Z 17015KT 22/16 A2992 RMK A01 T02180163  RH  071%=      5-min Rain = 0
KHO1 270408Z 17016KT 22/16 A2992 RMK A01 T02180163  RH  071%=      5-min Rain = 0
KHO1 270409Z 17015KT 22/16 A2992 RMK A01 T02180163  RH  071%=      5-min Rain = 0
KHO1 270410Z 17016KT 22/16 A2992 RMK A01 T02180162  RH  071%=      5-min Rain = 0
KHO1 270411Z 17016KT 22/16 A2992 RMK A01 T02180162  RH  071%=      5-min Rain = 0
KHO1 270412Z 17014G21KT 22/16 A2992 RMK A01 T02170162  RH  071%=      5-min Rain = 0
KHO1 270413Z 17017G22KT 22/16 A2992 RMK A01 T02180162  RH  071%=      5-min Rain = 0
KHO1 270414Z 17013KT 22/16 A2992 RMK A01 T02170162  RH  071%=      5-min Rain = 0
KHO1 270415Z 17012KT 22/16 A2992 RMK A01 T02170162  RH  071%=      5-min Rain = 0
KHO1 270416Z 17014KT 22/16 A2992 RMK A01 T02160161  RH  071%=      5-min Rain = 0
KHO1 270417Z 17015KT 22/16 A2992 RMK A01 T02170162  RH  071%=      5-min Rain = 0
KHO1 270418Z 17016KT 22/16 A2992 RMK A01 T02170162  RH  071%=      5-min Rain = 0
KHO1 270419Z 17014KT 22/16 A2992 RMK A01 T02170161  RH  071%=      5-min Rain = 0
KHO1 270420Z 17014KT 22/16 A2992 RMK A01 T02160161  RH  071%=      5-min Rain = 0
KHO1 270421Z 18013KT 22/16 A2992 RMK A01 T02160161  RH  071%=      5-min Rain = 0
KHO1 270422Z 18014KT 22/16 A2992 RMK A01 T02160161  RH  071%=      5-min Rain = 0
KHO1 270423Z 18014KT 22/16 A2992 RMK A01 T02160161  RH  071%=      5-min Rain = 0
KHO1 270424Z 18011KT 22/16 A2992 RMK A01 T02160161  RH  071%=      5-min Rain = 0
KHO1 270425Z 18013KT 22/16 A2992 RMK A01 T02160161  RH  071%=      5-min Rain = 0
KHO1 270426Z 19014KT 22/16 A2992 RMK A01 T02160160  RH  071%=      5-min Rain = 0
KHO1 270427Z 19012KT 22/16 A2993 RMK A01 T02160160  RH  071%=      5-min Rain = 0
KHO1 270428Z 19014KT 22/16 A2993 RMK A01 T02160160  RH  071%=      5-min Rain = 0
KHO1 270429Z 19012KT 22/16 A2993 RMK A01 T02160160  RH  070%=      5-min Rain = 0
KHO1 270430Z 20010KT 22/16 A2993 RMK A01 T02150160  RH  071%=      5-min Rain = 0
KHO1 270431Z 19013KT 22/16 A2993 RMK A01 T02150160  RH  071%=      5-min Rain = 0
KHO1 270432Z 19013KT 22/16 A2994 RMK A01 T02160160  RH  070%=      5-min Rain = 0
KHO1 270433Z 20012KT 22/16 A2994 RMK A01 T02160160  RH  070%=      5-min Rain = 0
KHO1 270434Z 20011KT 22/16 A2994 RMK A01 T02150160  RH  071%=      5-min Rain = 0
KHO1 270435Z 20011KT 22/16 A2994 RMK A01 T02150160  RH  071%=      5-min Rain = 0
KHO1 270436Z 20011KT 22/16 A2994 RMK A01 T02150160  RH  070%=      5-min Rain = 0
KHO1 270437Z 20012KT 22/16 A2994 RMK A01 T02150159  RH  070%=      5-min Rain = 0
KHO1 270438Z 20012KT 22/16 A2994 RMK A01 T02150159  RH  070%=      5-min Rain = 0
KHO1 270439Z 20015KT 22/16 A2995 RMK A01 T02150159  RH  070%=      5-min Rain = 0
KHO1 270440Z 21011KT 22/16 A2995 RMK A01 T02160159  RH  070%=      5-min Rain = 0
KHO1 270441Z 22010KT 22/16 A2995 RMK A01 T02160158  RH  070%=      5-min Rain = 0
KHO1 270442Z 22012KT 22/16 A2995 RMK A01 T02150158  RH  070%=      5-min Rain = 0
KHO1 270443Z 22011KT 22/16 A2996 RMK A01 T02150158  RH  070%=      5-min Rain = 0
KHO1 270444Z 22010KT 22/16 A2996 RMK A01 T02150158  RH  070%=      5-min Rain = 0
KHO1 270445Z 21010KT 22/16 A2995 RMK A01 T02150158  RH  070%=      5-min Rain = 0
KHO1 270446Z 21009KT 21/16 A2995 RMK A01 T02140158  RH  070%=      5-min Rain = 0
KHO1 270447Z 21010KT 21/16 A2995 RMK A01 T02140158  RH  070%=      5-min Rain = 0
KHO1 270448Z 21012KT 21/16 A2996 RMK A01 T02140158  RH  070%=      5-min Rain = 0
KHO1 270449Z 22011KT 22/16 A2995 RMK A01 T02150158  RH  070%=      5-min Rain = 0
KHO1 270450Z 22010KT 22/16 A2995 RMK A01 T02150157  RH  070%=      5-min Rain = 0
KHO1 270451Z 22011KT 22/16 A2996 RMK A01 T02150157  RH  070%=      5-min Rain = 0
KHO1 270452Z 22010KT 22/16 A2996 RMK A01 T02150157  RH  070%=      5-min Rain = 0
KHO1 270453Z 22010KT 22/16 A2996 RMK A01 T02150157  RH  070%=      5-min Rain = 0
KHO1 270454Z 21009KT 21/16 A2996 RMK A01 T02140157  RH  070%=      5-min Rain = 0
KHO1 270455Z 22008KT 21/16 A2996 RMK A01 T02140157  RH  070%=      5-min Rain = 0
KHO1 270456Z 22011KT 22/16 A2996 RMK A01 T02150157  RH  070%=      5-min Rain = 0
KHO1 270457Z 21010KT 22/16 A2996 RMK A01 T02150157  RH  070%=      5-min Rain = 0
KHO1 270458Z 21011KT 21/16 A2996 RMK A01 T02140157  RH  070%=      5-min Rain = 0
KHO1 270459Z 21009KT 21/16 A2996 RMK A01 T02140157  RH  070%=      5-min Rain = 0

Page generated in 0.1543 seconds.